Time,TemperatureF,DewpointF,PressureIn,WindDirection,WindDirectionDegrees,WindSpeedMPH,WindSpeedGustMPH,Humidity,HourlyPrecipIn,Conditions,Clouds,dailyrainin,SoftwareType,DateUTC
2013-01-20 00:00:00,41.4,33.4,30.17,WSW,251,0.0,0.0,73,0.00,,---,0.00,VWS V14.00,2013-01-20 06:00:00,
2013-01-20 00:03:00,41.2,33.2,30.17,WSW,251,0.0,0.0,73,0.00,,---,0.00,VWS V14.00,2013-01-20 06:03:00,
2013-01-20 00:05:00,41.2,33.2,30.17,WSW,251,0.0,0.0,73,0.00,,---,0.00,VWS V14.00,2013-01-20 06:05:00,
2013-01-20 00:08:00,41.0,33.0,30.18,WSW,251,2.0,3.0,73,0.00,,---,0.00,VWS V14.00,2013-01-20 06:08:00,
2013-01-20 00:10:00,41.0,33.0,30.18,WSW,251,2.0,3.0,73,0.00,,---,0.00,VWS V14.00,2013-01-20 06:10:00,
2013-01-20 00:13:00,40.9,33.3,30.17,WSW,251,2.0,3.0,74,0.00,,---,0.00,VWS V14.00,2013-01-20 06:13:00,
2013-01-20 00:15:00,40.8,33.2,30.17,WSW,251,2.0,3.0,74,0.00,,---,0.00,VWS V14.00,2013-01-20 06:15:00,
2013-01-20 00:18:00,40.9,33.6,30.18,WSW,251,1.0,3.0,75,0.00,,---,0.00,VWS V14.00,2013-01-20 06:18:00,
2013-01-20 00:20:00,40.9,33.6,30.18,WSW,251,2.0,3.0,75,0.00,,---,0.00,VWS V14.00,2013-01-20 06:20:00,
2013-01-20 00:23:00,41.1,34.1,30.18,WSW,251,1.0,3.0,76,0.00,,---,0.00,VWS V14.00,2013-01-20 06:23:00,
2013-01-20 00:25:00,41.1,33.8,30.18,WSW,251,1.0,3.0,75,0.00,,---,0.00,VWS V14.00,2013-01-20 06:25:00,
2013-01-20 00:28:00,41.3,34.0,30.18,WSW,251,0.0,2.0,75,0.00,,---,0.00,VWS V14.00,2013-01-20 06:28:00,
2013-01-20 00:30:00,41.3,34.0,30.18,WSW,251,0.0,2.0,75,0.00,,---,0.00,VWS V14.00,2013-01-20 06:30:00,
2013-01-20 00:33:00,41.4,34.1,30.18,WSW,251,0.0,0.0,75,0.00,,---,0.00,VWS V14.00,2013-01-20 06:33:00,
2013-01-20 00:35:00,41.4,34.1,30.18,WSW,251,0.0,0.0,75,0.00,,---,0.00,VWS V14.00,2013-01-20 06:35:00,
2013-01-20 00:38:00,41.4,34.1,30.19,WSW,251,0.0,0.0,75,0.00,,---,0.00,VWS V14.00,2013-01-20 06:38:00,
2013-01-20 00:40:00,41.4,33.8,30.19,WSW,251,0.0,0.0,74,0.00,,---,0.00,VWS V14.00,2013-01-20 06:40:00,
2013-01-20 00:43:00,41.3,33.3,30.19,WSW,251,0.0,0.0,73,0.00,,---,0.00,VWS V14.00,2013-01-20 06:43:00,
2013-01-20 00:45:00,41.3,33.3,30.19,WSW,251,0.0,0.0,73,0.00,,---,0.00,VWS V14.00,2013-01-20 06:45:00,
2013-01-20 00:48:00,41.0,32.7,30.19,WSW,251,0.0,0.0,72,0.00,,---,0.00,VWS V14.00,2013-01-20 06:48:00,
2013-01-20 00:50:00,40.9,32.6,30.19,WSW,251,0.0,0.0,72,0.00,,---,0.00,VWS V14.00,2013-01-20 06:50:00,
2013-01-20 00:53:00,40.2,31.9,30.19,WSW,251,0.0,0.0,72,0.00,,---,0.00,VWS V14.00,2013-01-20 06:53:00,
2013-01-20 00:55:00,40.1,32.2,30.19,WSW,251,0.0,0.0,73,0.00,,---,0.00,VWS V14.00,2013-01-20 06:55:00,
2013-01-20 00:58:00,39.9,32.6,30.19,WSW,251,0.0,0.0,75,0.00,,---,0.00,VWS V14.00,2013-01-20 06:58:00,
2013-01-20 01:00:00,39.8,32.5,30.19,WSW,251,0.0,0.0,75,0.00,,---,0.00,VWS V14.00,2013-01-20 07:00:00,
2013-01-20 01:03:00,39.8,32.9,30.19,WSW,251,0.0,0.0,76,0.00,,---,0.00,VWS V14.00,2013-01-20 07:03:00,
2013-01-20 01:05:00,39.9,33.0,30.19,WSW,251,0.0,0.0,76,0.00,,---,0.00,VWS V14.00,2013-01-20 07:05:00,
2013-01-20 01:08:00,40.0,33.4,30.19,WSW,251,0.0,0.0,77,0.00,,---,0.00,VWS V14.00,2013-01-20 07:08:00,
2013-01-20 01:10:00,40.1,33.5,30.19,WSW,251,0.0,0.0,77,0.00,,---,0.00,VWS V14.00,2013-01-20 07:10:00,
2013-01-20 01:13:00,40.1,33.5,30.19,WSW,251,0.0,0.0,77,0.00,,---,0.00,VWS V14.00,2013-01-20 07:13:00,
2013-01-20 01:15:00,40.1,33.5,30.19,WSW,251,0.0,0.0,77,0.00,,---,0.00,VWS V14.00,2013-01-20 07:15:00,
2013-01-20 01:18:00,40.2,33.6,30.19,WSW,251,0.0,0.0,77,0.00,,---,0.00,VWS V14.00,2013-01-20 07:18:00,
2013-01-20 01:20:00,40.3,33.7,30.19,WSW,251,0.0,0.0,77,0.00,,---,0.00,VWS V14.00,2013-01-20 07:20:00,
2013-01-20 01:23:00,40.2,33.2,30.19,WSW,251,0.0,0.0,76,0.00,,---,0.00,VWS V14.00,2013-01-20 07:23:00,
2013-01-20 01:25:00,40.2,33.2,30.19,WSW,251,0.0,0.0,76,0.00,,---,0.00,VWS V14.00,2013-01-20 07:25:00,
2013-01-20 01:28:00,40.3,33.7,30.19,WSW,251,0.0,0.0,77,0.00,,---,0.00,VWS V14.00,2013-01-20 07:28:00,
2013-01-20 01:30:00,40.3,33.7,30.19,WSW,251,0.0,0.0,77,0.00,,---,0.00,VWS V14.00,2013-01-20 07:30:00,
2013-01-20 01:33:00,40.5,33.5,30.19,WSW,251,0.0,0.0,76,0.00,,---,0.00,VWS V14.00,2013-01-20 07:33:00,
2013-01-20 01:35:00,40.5,33.5,30.19,WSW,251,0.0,0.0,76,0.00,,---,0.00,VWS V14.00,2013-01-20 07:35:00,
2013-01-20 01:38:00,40.7,33.7,30.19,WSW,251,0.0,0.0,76,0.00,,---,0.00,VWS V14.00,2013-01-20 07:38:00,
2013-01-20 01:40:00,40.7,33.7,30.19,WSW,251,0.0,0.0,76,0.00,,---,0.00,VWS V14.00,2013-01-20 07:40:00,
2013-01-20 01:43:00,40.8,33.5,30.19,WSW,251,0.0,0.0,75,0.00,,---,0.00,VWS V14.00,2013-01-20 07:43:00,
2013-01-20 01:45:00,40.8,33.5,30.19,WSW,251,0.0,0.0,75,0.00,,---,0.00,VWS V14.00,2013-01-20 07:45:00,
2013-01-20 01:48:00,40.8,33.2,30.19,WSW,251,0.0,1.0,74,0.00,,---,0.00,VWS V14.00,2013-01-20 07:48:00,
2013-01-20 01:50:00,40.8,33.2,30.19,WSW,251,0.0,1.0,74,0.00,,---,0.00,VWS V14.00,2013-01-20 07:50:00,
2013-01-20 01:53:00,40.8,32.8,30.19,WSW,251,3.0,3.0,73,0.00,,---,0.00,VWS V14.00,2013-01-20 07:53:00,
2013-01-20 01:55:00,40.8,32.8,30.19,WSW,251,2.0,4.0,73,0.00,,---,0.00,VWS V14.00,2013-01-20 07:55:00,
2013-01-20 01:58:00,40.8,32.8,30.19,WSW,251,2.0,3.0,73,0.00,,---,0.00,VWS V14.00,2013-01-20 07:58:00,
2013-01-20 02:00:00,40.8,32.5,30.19,WSW,251,2.0,3.0,72,0.00,,---,0.00,VWS V14.00,2013-01-20 08:00:00,
2013-01-20 02:03:00,40.7,32.4,30.19,WSW,251,2.0,4.0,72,0.00,,---,0.00,VWS V14.00,2013-01-20 08:03:00,
2013-01-20 02:05:00,40.7,32.4,30.19,WSW,251,2.0,4.0,72,0.00,,---,0.00,VWS V14.00,2013-01-20 08:05:00,
2013-01-20 02:08:00,40.5,32.2,30.19,WSW,252,0.0,4.0,72,0.00,,---,0.00,VWS V14.00,2013-01-20 08:08:00,
2013-01-20 02:10:00,40.5,32.2,30.19,WSW,252,1.0,4.0,72,0.00,,---,0.00,VWS V14.00,2013-01-20 08:10:00,
2013-01-20 02:13:00,40.5,32.2,30.19,WSW,254,4.0,4.0,72,0.00,,---,0.00,VWS V14.00,2013-01-20 08:13:00,
2013-01-20 02:15:00,40.5,32.2,30.19,WSW,255,3.0,4.0,72,0.00,,---,0.00,VWS V14.00,2013-01-20 08:15:00,
2013-01-20 02:18:00,40.5,31.9,30.19,WSW,256,3.0,4.0,71,0.00,,---,0.00,VWS V14.00,2013-01-20 08:18:00,
2013-01-20 02:20:00,40.5,31.9,30.19,WSW,257,3.0,4.0,71,0.00,,---,0.00,VWS V14.00,2013-01-20 08:20:00,
2013-01-20 02:23:00,40.6,32.0,30.20,WSW,257,1.0,4.0,71,0.00,,---,0.00,VWS V14.00,2013-01-20 08:23:00,
2013-01-20 02:25:00,40.6,32.0,30.20,WSW,257,0.0,4.0,71,0.00,,---,0.00,VWS V14.00,2013-01-20 08:25:00,
2013-01-20 02:28:00,40.7,32.0,30.20,WSW,257,2.0,3.0,71,0.00,,---,0.00,VWS V14.00,2013-01-20 08:28:00,
2013-01-20 02:30:00,40.7,32.0,30.20,WSW,257,3.0,3.0,71,0.00,,---,0.00,VWS V14.00,2013-01-20 08:30:00,
2013-01-20 02:33:00,40.8,32.1,30.20,WSW,257,2.0,3.0,71,0.00,,---,0.00,VWS V14.00,2013-01-20 08:33:00,
2013-01-20 02:35:00,40.8,31.8,30.20,WSW,257,1.0,3.0,70,0.00,,---,0.00,VWS V14.00,2013-01-20 08:35:00,
2013-01-20 02:38:00,40.7,31.7,30.20,WSW,257,0.0,1.0,70,0.00,,---,0.00,VWS V14.00,2013-01-20 08:38:00,
2013-01-20 02:40:00,40.6,31.6,30.20,WSW,257,0.0,1.0,70,0.00,,---,0.00,VWS V14.00,2013-01-20 08:40:00,
2013-01-20 02:43:00,40.4,31.4,30.20,WSW,257,0.0,0.0,70,0.00,,---,0.00,VWS V14.00,2013-01-20 08:43:00,
2013-01-20 02:45:00,40.3,31.0,30.20,WSW,257,0.0,0.0,69,0.00,,---,0.00,VWS V14.00,2013-01-20 08:45:00,
2013-01-20 02:48:00,40.0,31.0,30.20,WSW,257,0.0,0.0,70,0.00,,---,0.00,VWS V14.00,2013-01-20 08:48:00,
2013-01-20 02:50:00,39.9,30.9,30.20,WSW,257,0.0,0.0,70,0.00,,---,0.00,VWS V14.00,2013-01-20 08:50:00,
2013-01-20 02:53:00,39.8,30.8,30.20,WSW,257,0.0,0.0,70,0.00,,---,0.00,VWS V14.00,2013-01-20 08:53:00,
2013-01-20 02:55:00,39.7,30.7,30.20,WSW,257,0.0,0.0,70,0.00,,---,0.00,VWS V14.00,2013-01-20 08:55:00,
2013-01-20 02:58:00,39.5,30.9,30.20,WSW,257,0.0,0.0,71,0.00,,---,0.00,VWS V14.00,2013-01-20 08:58:00,
2013-01-20 03:00:00,39.5,30.9,30.20,WSW,257,0.0,0.0,71,0.00,,---,0.00,VWS V14.00,2013-01-20 09:00:00,
2013-01-20 03:03:00,39.4,30.8,30.20,WSW,257,0.0,0.0,71,0.00,,---,0.00,VWS V14.00,2013-01-20 09:03:00,
2013-01-20 03:05:00,39.4,30.8,30.20,WSW,257,0.0,0.0,71,0.00,,---,0.00,VWS V14.00,2013-01-20 09:05:00,
2013-01-20 03:08:00,39.4,30.8,30.20,WSW,257,0.0,0.0,71,0.00,,---,0.00,VWS V14.00,2013-01-20 09:08:00,
2013-01-20 03:10:00,39.4,30.8,30.20,WSW,257,0.0,0.0,71,0.00,,---,0.00,VWS V14.00,2013-01-20 09:10:00,
2013-01-20 03:13:00,39.5,30.9,30.20,WSW,257,0.0,0.0,71,0.00,,---,0.00,VWS V14.00,2013-01-20 09:13:00,
2013-01-20 03:15:00,39.5,30.9,30.20,WSW,257,0.0,0.0,71,0.00,,---,0.00,VWS V14.00,2013-01-20 09:15:00,
2013-01-20 03:18:00,39.6,31.0,30.20,WSW,257,0.0,0.0,71,0.00,,---,0.00,VWS V14.00,2013-01-20 09:18:00,
2013-01-20 03:20:00,39.6,31.0,30.20,WSW,257,0.0,0.0,71,0.00,,---,0.00,VWS V14.00,2013-01-20 09:20:00,
2013-01-20 03:23:00,39.7,30.7,30.20,WSW,257,0.0,0.0,70,0.00,,---,0.00,VWS V14.00,2013-01-20 09:23:00,
2013-01-20 03:25:00,39.7,30.7,30.20,WSW,257,0.0,0.0,70,0.00,,---,0.00,VWS V14.00,2013-01-20 09:25:00,
2013-01-20 03:28:00,39.7,30.7,30.20,WSW,257,0.0,0.0,70,0.00,,---,0.00,VWS V14.00,2013-01-20 09:28:00,
2013-01-20 03:30:00,39.7,30.7,30.20,WSW,257,0.0,0.0,70,0.00,,---,0.00,VWS V14.00,2013-01-20 09:30:00,
2013-01-20 03:33:00,39.8,30.8,30.20,WSW,257,2.0,3.0,70,0.00,,---,0.00,VWS V14.00,2013-01-20 09:33:00,
2013-01-20 03:35:00,39.8,30.8,30.20,WSW,257,3.0,4.0,70,0.00,,---,0.00,VWS V14.00,2013-01-20 09:35:00,
2013-01-20 03:38:00,39.9,30.6,30.20,WSW,258,2.0,4.0,69,0.00,,---,0.00,VWS V14.00,2013-01-20 09:38:00,
2013-01-20 03:40:00,39.9,30.6,30.20,WSW,258,2.0,4.0,69,0.00,,---,0.00,VWS V14.00,2013-01-20 09:40:00,
2013-01-20 03:43:00,39.8,30.5,30.20,West,259,3.0,4.0,69,0.00,,---,0.00,VWS V14.00,2013-01-20 09:43:00,
2013-01-20 03:45:00,39.8,30.5,30.20,West,259,4.0,4.0,69,0.00,,---,0.00,VWS V14.00,2013-01-20 09:45:00,
2013-01-20 03:48:00,39.8,30.1,30.20,West,266,5.0,5.0,68,0.00,,---,0.00,VWS V14.00,2013-01-20 09:48:00,
2013-01-20 03:50:00,39.8,30.1,30.20,West,269,2.0,5.0,68,0.00,,---,0.00,VWS V14.00,2013-01-20 09:50:00,
2013-01-20 03:53:00,39.8,30.1,30.19,West,273,4.0,5.0,68,0.00,,---,0.00,VWS V14.00,2013-01-20 09:53:00,
2013-01-20 03:55:00,39.7,30.0,30.19,West,274,2.0,5.0,68,0.00,,---,0.00,VWS V14.00,2013-01-20 09:55:00,
2013-01-20 03:58:00,39.7,30.0,30.19,WNW,287,4.0,6.0,68,0.00,,---,0.00,VWS V14.00,2013-01-20 09:58:00,
2013-01-20 04:00:00,39.7,30.0,30.20,WNW,290,5.0,6.0,68,0.00,,---,0.00,VWS V14.00,2013-01-20 10:00:00,
2013-01-20 04:03:00,39.8,30.1,30.20,WNW,290,3.0,5.0,68,0.00,,---,0.00,VWS V14.00,2013-01-20 10:03:00,
2013-01-20 04:05:00,39.8,30.1,30.19,WNW,290,2.0,5.0,68,0.00,,---,0.00,VWS V14.00,2013-01-20 10:05:00,
2013-01-20 04:08:00,39.8,30.1,30.20,WNW,292,5.0,5.0,68,0.00,,---,0.00,VWS V14.00,2013-01-20 10:08:00,
2013-01-20 04:10:00,39.8,30.1,30.20,WNW,293,3.0,5.0,68,0.00,,---,0.00,VWS V14.00,2013-01-20 10:10:00,
2013-01-20 04:13:00,39.8,30.1,30.20,WNW,295,4.0,6.0,68,0.00,,---,0.00,VWS V14.00,2013-01-20 10:13:00,
2013-01-20 04:15:00,39.7,30.0,30.20,WNW,296,3.0,6.0,68,0.00,,---,0.00,VWS V14.00,2013-01-20 10:15:00,
2013-01-20 04:18:00,39.7,30.0,30.19,WNW,301,4.0,6.0,68,0.00,,---,0.00,VWS V14.00,2013-01-20 10:18:00,
2013-01-20 04:20:00,39.7,30.0,30.19,WNW,301,3.0,6.0,68,0.00,,---,0.00,VWS V14.00,2013-01-20 10:20:00,
2013-01-20 04:23:00,39.7,30.0,30.19,NW,304,2.0,5.0,68,0.00,,---,0.00,VWS V14.00,2013-01-20 10:23:00,
2013-01-20 04:25:00,39.7,30.0,30.19,NW,304,2.0,6.0,68,0.00,,---,0.00,VWS V14.00,2013-01-20 10:25:00,
2013-01-20 04:28:00,39.7,30.0,30.19,NW,305,2.0,5.0,68,0.00,,---,0.00,VWS V14.00,2013-01-20 10:28:00,
2013-01-20 04:30:00,39.7,30.0,30.19,NW,305,2.0,5.0,68,0.00,,---,0.00,VWS V14.00,2013-01-20 10:30:00,
2013-01-20 04:33:00,39.7,30.0,30.19,NW,307,4.0,6.0,68,0.00,,---,0.00,VWS V14.00,2013-01-20 10:33:00,
2013-01-20 04:35:00,39.8,30.1,30.19,NW,313,5.0,6.0,68,0.00,,---,0.00,VWS V14.00,2013-01-20 10:35:00,
2013-01-20 04:38:00,39.8,30.1,30.19,NW,319,6.0,7.0,68,0.00,,---,0.00,VWS V14.00,2013-01-20 10:38:00,
2013-01-20 04:40:00,39.8,30.1,30.19,NW,321,3.0,7.0,68,0.00,,---,0.00,VWS V14.00,2013-01-20 10:40:00,
2013-01-20 04:43:00,39.8,30.1,30.19,NW,324,3.0,6.0,68,0.00,,---,0.00,VWS V14.00,2013-01-20 10:43:00,
2013-01-20 04:45:00,39.8,29.8,30.19,NW,324,5.0,6.0,67,0.00,,---,0.00,VWS V14.00,2013-01-20 10:45:00,
2013-01-20 04:48:00,39.7,30.0,30.20,NNW,327,4.0,7.0,68,0.00,,---,0.00,VWS V14.00,2013-01-20 10:48:00,
2013-01-20 04:50:00,39.7,30.0,30.20,NNW,328,3.0,7.0,68,0.00,,---,0.00,VWS V14.00,2013-01-20 10:50:00,
2013-01-20 04:53:00,39.5,29.8,30.20,NNW,329,4.0,6.0,68,0.00,,---,0.00,VWS V14.00,2013-01-20 10:53:00,
2013-01-20 04:55:00,39.5,29.8,30.20,NNW,329,3.0,6.0,68,0.00,,---,0.00,VWS V14.00,2013-01-20 10:55:00,
2013-01-20 04:58:00,39.5,29.8,30.20,NNW,331,4.0,6.0,68,0.00,,---,0.00,VWS V14.00,2013-01-20 10:58:00,
2013-01-20 05:00:00,39.4,29.7,30.20,NNW,332,4.0,6.0,68,0.00,,---,0.00,VWS V14.00,2013-01-20 11:00:00,
2013-01-20 05:03:00,39.3,29.6,30.20,NNW,333,3.0,6.0,68,0.00,,---,0.00,VWS V14.00,2013-01-20 11:03:00,
2013-01-20 05:05:00,39.2,29.5,30.19,NNW,333,3.0,6.0,68,0.00,,---,0.00,VWS V14.00,2013-01-20 11:05:00,
2013-01-20 05:08:00,39.0,29.7,30.19,NNW,338,4.0,7.0,69,0.00,,---,0.00,VWS V14.00,2013-01-20 11:08:00,
2013-01-20 05:10:00,38.9,29.6,30.20,NNW,338,4.0,7.0,69,0.00,,---,0.00,VWS V14.00,2013-01-20 11:10:00,
2013-01-20 05:13:00,38.7,29.4,30.19,NNW,340,5.0,6.0,69,0.00,,---,0.00,VWS V14.00,2013-01-20 11:13:00,
2013-01-20 05:15:00,38.6,29.3,30.19,NNW,341,5.0,7.0,69,0.00,,---,0.00,VWS V14.00,2013-01-20 11:15:00,
2013-01-20 05:18:00,38.4,29.5,30.19,NNW,348,6.0,9.0,70,0.00,,---,0.00,VWS V14.00,2013-01-20 11:18:00,
2013-01-20 05:20:00,38.3,29.4,30.20,North,351,6.0,9.0,70,0.00,,---,0.00,VWS V14.00,2013-01-20 11:20:00,
2013-01-20 05:23:00,38.0,29.1,30.19,North,355,5.0,9.0,70,0.00,,---,0.00,VWS V14.00,2013-01-20 11:23:00,
2013-01-20 05:25:00,37.8,28.9,30.19,North,355,6.0,9.0,70,0.00,,---,0.00,VWS V14.00,2013-01-20 11:25:00,
2013-01-20 05:28:00,37.6,29.1,30.19,North,5,5.0,8.0,71,0.00,,---,0.00,VWS V14.00,2013-01-20 11:28:00,
2013-01-20 05:30:00,37.5,29.0,30.19,North,5,6.0,9.0,71,0.00,,---,0.00,VWS V14.00,2013-01-20 11:30:00,
2013-01-20 05:33:00,37.3,29.1,30.19,North,9,3.0,9.0,72,0.00,,---,0.00,VWS V14.00,2013-01-20 11:33:00,
2013-01-20 05:35:00,37.1,28.9,30.20,North,9,4.0,9.0,72,0.00,,---,0.00,VWS V14.00,2013-01-20 11:35:00,
2013-01-20 05:38:00,36.8,28.6,30.20,North,9,4.0,5.0,72,0.00,,---,0.00,VWS V14.00,2013-01-20 11:38:00,
2013-01-20 05:40:00,36.7,28.5,30.20,North,9,4.0,5.0,72,0.00,,---,0.00,VWS V14.00,2013-01-20 11:40:00,
2013-01-20 05:42:00,36.4,28.2,30.20,North,9,4.0,5.0,72,0.00,,---,0.00,VWS V14.00,2013-01-20 11:42:00,
2013-01-20 05:45:00,36.2,28.1,30.20,North,9,3.0,5.0,72,0.00,,---,0.00,VWS V14.00,2013-01-20 11:45:00,
2013-01-20 05:47:00,36.0,28.2,30.20,North,9,3.0,5.0,73,0.00,,---,0.00,VWS V14.00,2013-01-20 11:47:00,
2013-01-20 05:50:00,35.9,28.1,30.20,North,9,3.0,5.0,73,0.00,,---,0.00,VWS V14.00,2013-01-20 11:50:00,
2013-01-20 05:52:00,35.7,28.2,30.20,North,9,4.0,6.0,74,0.00,,---,0.00,VWS V14.00,2013-01-20 11:52:00,
2013-01-20 05:55:00,35.7,28.2,30.20,North,11,5.0,7.0,74,0.00,,---,0.00,VWS V14.00,2013-01-20 11:55:00,
2013-01-20 05:57:00,35.6,28.5,30.20,North,11,6.0,6.0,75,0.00,,---,0.00,VWS V14.00,2013-01-20 11:57:00,
2013-01-20 06:00:00,35.6,28.5,30.20,North,11,5.0,6.0,75,0.00,,---,0.00,VWS V14.00,2013-01-20 12:00:00,
2013-01-20 06:03:00,35.6,28.5,30.20,North,11,2.0,6.0,75,0.00,,---,0.00,VWS V14.00,2013-01-20 12:03:00,
2013-01-20 06:05:00,35.6,28.5,30.20,North,11,3.0,6.0,75,0.00,,---,0.00,VWS V14.00,2013-01-20 12:05:00,
2013-01-20 06:08:00,35.5,28.4,30.20,North,11,4.0,5.0,75,0.00,,---,0.00,VWS V14.00,2013-01-20 12:08:00,
2013-01-20 06:10:00,35.5,28.4,30.20,North,11,4.0,6.0,75,0.00,,---,0.00,VWS V14.00,2013-01-20 12:10:00,
2013-01-20 06:13:00,35.3,28.2,30.20,NNE,12,4.0,6.0,75,0.00,,---,0.00,VWS V14.00,2013-01-20 12:13:00,
2013-01-20 06:15:00,35.2,28.1,30.20,NNE,12,4.0,6.0,75,0.00,,---,0.00,VWS V14.00,2013-01-20 12:15:00,
2013-01-20 06:18:00,35.1,28.0,30.20,NNE,12,5.0,5.0,75,0.00,,---,0.00,VWS V14.00,2013-01-20 12:18:00,
2013-01-20 06:20:00,35.1,28.0,30.20,NNE,12,4.0,5.0,75,0.00,,---,0.00,VWS V14.00,2013-01-20 12:20:00,
2013-01-20 06:23:00,35.1,28.3,30.20,NNE,12,5.0,7.0,76,0.00,,---,0.00,VWS V14.00,2013-01-20 12:23:00,
2013-01-20 06:25:00,35.1,28.3,30.20,NNE,12,5.0,7.0,76,0.00,,---,0.00,VWS V14.00,2013-01-20 12:25:00,
2013-01-20 06:28:00,35.1,28.3,30.20,NNE,12,4.0,6.0,76,0.00,,---,0.00,VWS V14.00,2013-01-20 12:28:00,
2013-01-20 06:30:00,35.0,28.2,30.20,NNE,13,6.0,6.0,76,0.00,,---,0.00,VWS V14.00,2013-01-20 12:30:00,
2013-01-20 06:33:00,35.1,28.3,30.20,NNE,13,7.0,7.0,76,0.00,,---,0.00,VWS V14.00,2013-01-20 12:33:00,
2013-01-20 06:35:00,35.1,28.3,30.20,NNE,13,4.0,8.0,76,0.00,,---,0.00,VWS V14.00,2013-01-20 12:35:00,
2013-01-20 06:38:00,35.1,28.3,30.20,NNE,14,5.0,7.0,76,0.00,,---,0.00,VWS V14.00,2013-01-20 12:38:00,
2013-01-20 06:40:00,35.1,28.3,30.20,NNE,14,5.0,7.0,76,0.00,,---,0.00,VWS V14.00,2013-01-20 12:40:00,
2013-01-20 06:42:00,35.0,28.2,30.20,NNE,17,5.0,7.0,76,0.00,,---,0.00,VWS V14.00,2013-01-20 12:42:00,
2013-01-20 06:45:00,35.0,28.2,30.20,NNE,19,7.0,7.0,76,0.00,,---,0.00,VWS V14.00,2013-01-20 12:45:00,
2013-01-20 06:47:00,34.8,28.0,30.20,NNE,21,5.0,7.0,76,0.00,,---,0.00,VWS V14.00,2013-01-20 12:47:00,
2013-01-20 06:50:00,34.7,27.9,30.20,NNE,22,6.0,7.0,76,0.00,,---,0.00,VWS V14.00,2013-01-20 12:50:00,
2013-01-20 06:52:00,34.4,27.6,30.20,NNE,22,6.0,7.0,76,0.00,,---,0.00,VWS V14.00,2013-01-20 12:52:00,
2013-01-20 06:55:00,34.4,28.0,30.20,NNE,23,5.0,9.0,77,0.00,,---,0.00,VWS V14.00,2013-01-20 12:55:00,
2013-01-20 06:57:00,34.4,28.0,30.20,NNE,24,6.0,8.0,77,0.00,,---,0.00,VWS V14.00,2013-01-20 12:57:00,
2013-01-20 07:00:00,34.4,28.0,30.20,NNE,24,5.0,8.0,77,0.00,,---,0.00,VWS V14.00,2013-01-20 13:00:00,
2013-01-20 07:03:00,34.4,28.0,30.20,NNE,26,5.0,9.0,77,0.00,,---,0.00,VWS V14.00,2013-01-20 13:03:00,
2013-01-20 07:05:00,34.4,28.0,30.20,NNE,26,8.0,9.0,77,0.00,,---,0.00,VWS V14.00,2013-01-20 13:05:00,
2013-01-20 07:08:00,34.4,28.0,30.20,NNE,26,5.0,9.0,77,0.00,,---,0.00,VWS V14.00,2013-01-20 13:08:00,
2013-01-20 07:10:00,34.4,28.3,30.20,NNE,26,6.0,10.0,78,0.00,,---,0.00,VWS V14.00,2013-01-20 13:10:00,
2013-01-20 07:12:00,34.4,28.3,30.20,NNE,27,5.0,10.0,78,0.00,,---,0.00,VWS V14.00,2013-01-20 13:12:00,
2013-01-20 07:15:00,34.3,28.2,30.20,NNE,27,7.0,10.0,78,0.00,,---,0.00,VWS V14.00,2013-01-20 13:15:00,
2013-01-20 07:17:00,34.3,28.2,30.20,NNE,28,6.0,9.0,78,0.00,,---,0.00,VWS V14.00,2013-01-20 13:17:00,
2013-01-20 07:20:00,34.3,28.2,30.20,NNE,28,8.0,9.0,78,0.00,,---,0.00,VWS V14.00,2013-01-20 13:20:00,
2013-01-20 07:23:00,34.3,28.2,30.20,NNE,28,5.0,9.0,78,0.00,,---,0.00,VWS V14.00,2013-01-20 13:23:00,
2013-01-20 07:25:00,34.3,28.2,30.20,NNE,29,8.0,9.0,78,0.00,,---,0.00,VWS V14.00,2013-01-20 13:25:00,
2013-01-20 07:28:00,34.4,28.3,30.20,NNE,30,5.0,9.0,78,0.00,,---,0.00,VWS V14.00,2013-01-20 13:28:00,
2013-01-20 07:30:00,34.4,28.3,30.20,NNE,30,4.0,9.0,78,0.00,,---,0.00,VWS V14.00,2013-01-20 13:30:00,
2013-01-20 07:32:00,34.2,28.1,30.20,NNE,32,5.0,7.0,78,0.00,,---,0.00,VWS V14.00,2013-01-20 13:32:00,
2013-01-20 07:35:00,34.0,27.6,30.20,NE,34,6.0,9.0,77,0.00,,---,0.00,VWS V14.00,2013-01-20 13:35:00,
2013-01-20 07:37:00,33.5,27.4,30.20,NE,34,5.0,7.0,78,0.00,,---,0.00,VWS V14.00,2013-01-20 13:37:00,
2013-01-20 07:40:00,33.4,27.3,30.20,NE,35,5.0,7.0,78,0.00,,---,0.00,VWS V14.00,2013-01-20 13:40:00,
2013-01-20 07:42:00,33.0,26.9,30.20,NE,36,6.0,7.0,78,0.00,,---,0.00,VWS V14.00,2013-01-20 13:42:00,
2013-01-20 07:45:00,32.8,27.0,30.20,NE,37,5.0,7.0,79,0.00,,---,0.00,VWS V14.00,2013-01-20 13:45:00,
2013-01-20 07:47:00,32.6,27.1,30.20,NE,38,6.0,9.0,80,0.00,,---,0.00,VWS V14.00,2013-01-20 13:47:00,
2013-01-20 07:50:00,32.7,27.2,30.21,NE,38,6.0,9.0,80,0.00,,---,0.00,VWS V14.00,2013-01-20 13:50:00,
2013-01-20 07:52:00,32.8,27.3,30.20,NE,38,5.0,7.0,80,0.00,,---,0.00,VWS V14.00,2013-01-20 13:52:00,
2013-01-20 07:55:00,32.9,27.4,30.20,NE,38,5.0,9.0,80,0.00,,---,0.00,VWS V14.00,2013-01-20 13:55:00,
2013-01-20 07:57:00,33.1,27.6,30.21,NE,37,6.0,10.0,80,0.00,,---,0.00,VWS V14.00,2013-01-20 13:57:00,
2013-01-20 08:00:00,33.3,28.1,30.20,NE,37,6.0,10.0,81,0.00,,---,0.00,VWS V14.00,2013-01-20 14:00:00,
2013-01-20 08:02:00,33.6,28.1,30.21,NE,36,7.0,9.0,80,0.00,,---,0.00,VWS V14.00,2013-01-20 14:02:00,
2013-01-20 08:05:00,33.8,28.3,30.21,NE,36,7.0,9.0,80,0.00,,---,0.00,VWS V14.00,2013-01-20 14:05:00,
2013-01-20 08:07:00,34.2,28.7,30.21,NE,36,7.0,8.0,80,0.00,,---,0.00,VWS V14.00,2013-01-20 14:07:00,
2013-01-20 08:10:00,34.4,28.9,30.20,NE,35,6.0,11.0,80,0.00,,---,0.00,VWS V14.00,2013-01-20 14:10:00,
2013-01-20 08:12:00,34.7,29.2,30.21,NE,34,4.0,10.0,80,0.00,,---,0.00,VWS V14.00,2013-01-20 14:12:00,
2013-01-20 08:15:00,34.9,29.4,30.20,NE,34,9.0,10.0,80,0.00,,---,0.00,VWS V14.00,2013-01-20 14:15:00,
2013-01-20 08:17:00,35.3,29.5,30.20,NNE,33,6.0,11.0,79,0.00,,---,0.00,VWS V14.00,2013-01-20 14:17:00,
2013-01-20 08:20:00,35.5,29.6,30.20,NNE,33,7.0,11.0,79,0.00,,---,0.00,VWS V14.00,2013-01-20 14:20:00,
2013-01-20 08:22:00,35.9,29.7,30.20,NE,34,6.0,10.0,78,0.00,,---,0.00,VWS V14.00,2013-01-20 14:22:00,
2013-01-20 08:25:00,36.1,29.9,30.20,NE,36,7.0,10.0,78,0.00,,---,0.00,VWS V14.00,2013-01-20 14:25:00,
2013-01-20 08:27:00,36.5,30.3,30.20,NE,35,8.0,10.0,78,0.00,,---,0.00,VWS V14.00,2013-01-20 14:27:00,
2013-01-20 08:30:00,36.6,30.1,30.20,NE,35,9.0,10.0,77,0.00,,---,0.00,VWS V14.00,2013-01-20 14:30:00,
2013-01-20 08:32:00,37.0,30.5,30.20,NNE,33,11.0,11.0,77,0.00,,---,0.00,VWS V14.00,2013-01-20 14:32:00,
2013-01-20 08:35:00,37.1,30.6,30.20,NNE,33,5.0,12.0,77,0.00,,---,0.00,VWS V14.00,2013-01-20 14:35:00,
2013-01-20 08:37:00,37.4,30.9,30.20,NNE,33,8.0,10.0,77,0.00,,---,0.00,VWS V14.00,2013-01-20 14:37:00,
2013-01-20 08:40:00,37.6,31.1,30.20,NE,36,6.0,11.0,77,0.00,,---,0.00,VWS V14.00,2013-01-20 14:40:00,
2013-01-20 08:42:00,37.9,31.0,30.20,NE,36,11.0,12.0,76,0.00,,---,0.00,VWS V14.00,2013-01-20 14:42:00,
2013-01-20 08:45:00,38.0,31.1,30.20,NE,34,11.0,12.0,76,0.00,,---,0.00,VWS V14.00,2013-01-20 14:45:00,
2013-01-20 08:47:00,38.3,31.1,30.20,NE,35,9.0,12.0,75,0.00,,---,0.00,VWS V14.00,2013-01-20 14:47:00,
2013-01-20 08:50:00,38.4,31.2,30.20,NE,35,9.0,12.0,75,0.00,,---,0.00,VWS V14.00,2013-01-20 14:50:00,
2013-01-20 08:52:00,38.7,31.5,30.21,NE,35,9.0,12.0,75,0.00,,---,0.00,VWS V14.00,2013-01-20 14:52:00,
2013-01-20 08:55:00,38.8,31.6,30.21,NE,38,9.0,12.0,75,0.00,,---,0.00,VWS V14.00,2013-01-20 14:55:00,
2013-01-20 08:57:00,39.1,31.9,30.21,NE,38,9.0,10.0,75,0.00,,---,0.00,VWS V14.00,2013-01-20 14:57:00,
2013-01-20 09:00:00,39.3,32.0,30.21,NE,39,5.0,11.0,75,0.00,,---,0.00,VWS V14.00,2013-01-20 15:00:00,
2013-01-20 09:02:00,39.6,32.0,30.21,NE,39,6.0,10.0,74,0.00,,---,0.00,VWS V14.00,2013-01-20 15:02:00,
2013-01-20 09:05:00,39.7,32.1,30.21,NE,40,9.0,10.0,74,0.00,,---,0.00,VWS V14.00,2013-01-20 15:05:00,
2013-01-20 09:07:00,40.0,32.1,30.21,NE,42,6.0,12.0,73,0.00,,---,0.00,VWS V14.00,2013-01-20 15:07:00,
2013-01-20 09:10:00,40.2,32.2,30.21,NE,44,9.0,12.0,73,0.00,,---,0.00,VWS V14.00,2013-01-20 15:10:00,
2013-01-20 09:12:00,40.5,32.5,30.21,NE,46,6.0,11.0,73,0.00,,---,0.00,VWS V14.00,2013-01-20 15:12:00,
2013-01-20 09:15:00,40.6,32.3,30.21,NE,46,7.0,11.0,72,0.00,,---,0.00,VWS V14.00,2013-01-20 15:15:00,
2013-01-20 09:17:00,40.8,32.1,30.21,NE,46,11.0,12.0,71,0.00,,---,0.00,VWS V14.00,2013-01-20 15:17:00,
2013-01-20 09:20:00,40.9,32.2,30.21,NE,44,10.0,12.0,71,0.00,,---,0.00,VWS V14.00,2013-01-20 15:20:00,
2013-01-20 09:22:00,41.1,32.4,30.21,NE,43,10.0,12.0,71,0.00,,---,0.00,VWS V14.00,2013-01-20 15:22:00,
2013-01-20 09:25:00,41.1,32.1,30.21,NE,44,7.0,12.0,70,0.00,,---,0.00,VWS V14.00,2013-01-20 15:25:00,
2013-01-20 09:27:00,41.4,32.4,30.22,NE,42,10.0,12.0,70,0.00,,---,0.00,VWS V14.00,2013-01-20 15:27:00,
2013-01-20 09:30:00,41.5,32.1,30.22,NE,45,9.0,12.0,69,0.00,,---,0.00,VWS V14.00,2013-01-20 15:30:00,
2013-01-20 09:32:00,41.7,32.3,30.21,NE,44,9.0,11.0,69,0.00,,---,0.00,VWS V14.00,2013-01-20 15:32:00,
2013-01-20 09:35:00,41.8,32.4,30.22,NE,42,6.0,12.0,69,0.00,,---,0.00,VWS V14.00,2013-01-20 15:35:00,
2013-01-20 09:37:00,42.0,32.6,30.22,NE,42,9.0,10.0,69,0.00,,---,0.00,VWS V14.00,2013-01-20 15:37:00,
2013-01-20 09:40:00,42.2,32.8,30.22,NE,42,8.0,10.0,69,0.00,,---,0.00,VWS V14.00,2013-01-20 15:40:00,
2013-01-20 09:42:00,42.5,33.1,30.21,NE,46,10.0,10.0,69,0.00,,---,0.00,VWS V14.00,2013-01-20 15:42:00,
2013-01-20 09:45:00,42.6,32.8,30.21,NE,46,10.0,12.0,68,0.00,,---,0.00,VWS V14.00,2013-01-20 15:45:00,
2013-01-20 09:47:00,42.8,32.6,30.21,NE,38,9.0,12.0,67,0.00,,---,0.00,VWS V14.00,2013-01-20 15:47:00,
2013-01-20 09:50:00,43.0,32.8,30.21,NE,38,10.0,12.0,67,0.00,,---,0.00,VWS V14.00,2013-01-20 15:50:00,
2013-01-20 09:52:00,43.3,32.7,30.21,NE,40,8.0,12.0,66,0.00,,---,0.00,VWS V14.00,2013-01-20 15:52:00,
2013-01-20 09:55:00,43.4,33.2,30.21,NE,39,10.0,12.0,67,0.00,,---,0.00,VWS V14.00,2013-01-20 15:55:00,
2013-01-20 09:57:00,43.8,33.2,30.21,NE,36,6.0,10.0,66,0.00,,---,0.00,VWS V14.00,2013-01-20 15:57:00,
2013-01-20 10:00:00,43.9,33.3,30.21,NE,36,9.0,10.0,66,0.00,,---,0.00,VWS V14.00,2013-01-20 16:00:00,
2013-01-20 10:02:00,44.2,33.2,30.21,NE,40,6.0,11.0,65,0.00,,---,0.00,VWS V14.00,2013-01-20 16:02:00,
2013-01-20 10:05:00,44.4,33.4,30.21,NE,38,10.0,11.0,65,0.00,,---,0.00,VWS V14.00,2013-01-20 16:05:00,
2013-01-20 10:07:00,44.9,33.5,30.21,NE,40,10.0,11.0,64,0.00,,---,0.00,VWS V14.00,2013-01-20 16:07:00,
2013-01-20 10:10:00,45.1,33.7,30.21,NE,43,8.0,11.0,64,0.00,,---,0.00,VWS V14.00,2013-01-20 16:10:00,
2013-01-20 10:12:00,45.6,33.8,30.21,NE,44,7.0,10.0,63,0.00,,---,0.00,VWS V14.00,2013-01-20 16:12:00,
2013-01-20 10:15:00,45.8,33.9,30.21,NE,44,6.0,10.0,63,0.00,,---,0.00,VWS V14.00,2013-01-20 16:15:00,
2013-01-20 10:17:00,46.3,34.0,30.21,NE,44,7.0,10.0,62,0.00,,---,0.00,VWS V14.00,2013-01-20 16:17:00,
2013-01-20 10:20:00,46.6,34.3,30.21,NE,46,9.0,10.0,62,0.00,,---,0.00,VWS V14.00,2013-01-20 16:20:00,
2013-01-20 10:22:00,47.2,34.0,30.21,NE,44,6.0,10.0,60,0.00,,---,0.00,VWS V14.00,2013-01-20 16:22:00,
2013-01-20 10:25:00,47.4,34.2,30.21,NE,44,3.0,10.0,60,0.00,,---,0.00,VWS V14.00,2013-01-20 16:25:00,
2013-01-20 10:27:00,47.8,35.4,30.21,NE,44,5.0,9.0,62,0.00,,---,0.00,VWS V14.00,2013-01-20 16:27:00,
2013-01-20 10:30:00,48.0,34.4,30.21,NE,45,6.0,9.0,59,0.00,,---,0.00,VWS V14.00,2013-01-20 16:30:00,
2013-01-20 10:32:00,48.4,34.8,30.21,NE,46,7.0,7.0,59,0.00,,---,0.00,VWS V14.00,2013-01-20 16:32:00,
2013-01-20 10:35:00,48.6,34.5,30.21,NE,45,7.0,10.0,58,0.00,,---,0.00,VWS V14.00,2013-01-20 16:35:00,
2013-01-20 10:37:00,49.0,34.9,30.21,NE,43,4.0,9.0,58,0.00,,---,0.00,VWS V14.00,2013-01-20 16:37:00,
2013-01-20 10:40:00,49.2,35.1,30.21,NE,37,5.0,9.0,58,0.00,,---,0.00,VWS V14.00,2013-01-20 16:40:00,
2013-01-20 10:42:00,49.5,34.9,30.21,NE,51,7.0,9.0,57,0.00,,---,0.00,VWS V14.00,2013-01-20 16:42:00,
2013-01-20 10:45:00,49.6,35.5,30.21,NE,50,5.0,9.0,58,0.00,,---,0.00,VWS V14.00,2013-01-20 16:45:00,
2013-01-20 10:47:00,49.9,35.3,30.21,East,80,9.0,10.0,57,0.00,,---,0.00,VWS V14.00,2013-01-20 16:47:00,
2013-01-20 10:50:00,50.3,37.0,30.21,East,98,9.0,10.0,60,0.00,,---,0.00,VWS V14.00,2013-01-20 16:50:00,
2013-01-20 10:52:00,51.0,37.6,30.21,East,88,10.0,12.0,60,0.00,,---,0.00,VWS V14.00,2013-01-20 16:52:00,
2013-01-20 10:55:00,51.2,37.8,30.20,East,92,5.0,12.0,60,0.00,,---,0.00,VWS V14.00,2013-01-20 16:55:00,
2013-01-20 10:57:00,51.6,38.2,30.20,ESE,105,7.0,11.0,60,0.00,,---,0.00,VWS V14.00,2013-01-20 16:57:00,
2013-01-20 11:00:00,51.7,37.8,30.20,ESE,103,8.0,13.0,59,0.00,,---,0.00,VWS V14.00,2013-01-20 17:00:00,
2013-01-20 11:02:00,51.9,37.6,30.20,East,92,6.0,11.0,58,0.00,,---,0.00,VWS V14.00,2013-01-20 17:02:00,
2013-01-20 11:05:00,52.1,38.2,30.20,ESE,114,9.0,13.0,59,0.00,,---,0.00,VWS V14.00,2013-01-20 17:05:00,
2013-01-20 11:07:00,52.3,38.8,30.20,ESE,107,11.0,13.0,60,0.00,,---,0.00,VWS V14.00,2013-01-20 17:07:00,
2013-01-20 11:10:00,52.4,38.9,30.20,ESE,103,11.0,13.0,60,0.00,,---,0.00,VWS V14.00,2013-01-20 17:10:00,
2013-01-20 11:12:00,52.4,38.9,30.20,East,92,9.0,13.0,60,0.00,,---,0.00,VWS V14.00,2013-01-20 17:12:00,
2013-01-20 11:15:00,52.3,38.8,30.20,ESE,107,7.0,14.0,60,0.00,,---,0.00,VWS V14.00,2013-01-20 17:15:00,
2013-01-20 11:17:00,52.4,39.4,30.20,ESE,120,6.0,14.0,61,0.00,,---,0.00,VWS V14.00,2013-01-20 17:17:00,
2013-01-20 11:20:00,52.4,39.4,30.20,ESE,111,10.0,14.0,61,0.00,,---,0.00,VWS V14.00,2013-01-20 17:20:00,
2013-01-20 11:22:00,52.5,39.5,30.20,ESE,105,5.0,13.0,61,0.00,,---,0.00,VWS V14.00,2013-01-20 17:22:00,
2013-01-20 11:25:00,52.5,39.9,30.20,East,96,11.0,13.0,62,0.00,,---,0.00,VWS V14.00,2013-01-20 17:25:00,
2013-01-20 11:27:00,52.6,40.0,30.20,East,98,6.0,12.0,62,0.00,,---,0.00,VWS V14.00,2013-01-20 17:27:00,
2013-01-20 11:30:00,52.7,40.1,30.20,ESE,105,5.0,12.0,62,0.00,,---,0.00,VWS V14.00,2013-01-20 17:30:00,
2013-01-20 11:32:00,53.0,40.3,30.20,ESE,109,10.0,10.0,62,0.00,,---,0.00,VWS V14.00,2013-01-20 17:32:00,
2013-01-20 11:35:00,53.1,40.4,30.19,ESE,112,4.0,12.0,62,0.00,,---,0.00,VWS V14.00,2013-01-20 17:35:00,
2013-01-20 11:37:00,53.2,40.5,30.19,ESE,102,10.0,13.0,62,0.00,,---,0.00,VWS V14.00,2013-01-20 17:37:00,
2013-01-20 11:40:00,53.2,40.5,30.19,East,98,7.0,13.0,62,0.00,,---,0.00,VWS V14.00,2013-01-20 17:40:00,
2013-01-20 11:42:00,53.2,40.5,30.19,SE,130,5.0,10.0,62,0.00,,---,0.00,VWS V14.00,2013-01-20 17:42:00,
2013-01-20 11:45:00,53.2,40.5,30.19,East,95,4.0,10.0,62,0.00,,---,0.00,VWS V14.00,2013-01-20 17:45:00,
2013-01-20 11:47:00,53.3,40.6,30.18,East,94,5.0,9.0,62,0.00,,---,0.00,VWS V14.00,2013-01-20 17:47:00,
2013-01-20 11:50:00,53.5,41.2,30.18,ESE,118,8.0,11.0,63,0.00,,---,0.00,VWS V14.00,2013-01-20 17:50:00,
2013-01-20 11:52:00,53.7,41.0,30.18,SE,140,4.0,10.0,62,0.00,,---,0.00,VWS V14.00,2013-01-20 17:52:00,
2013-01-20 11:55:00,53.9,41.2,30.18,SE,138,6.0,10.0,62,0.00,,---,0.00,VWS V14.00,2013-01-20 17:55:00,
2013-01-20 11:57:00,54.1,41.4,30.18,ESE,111,5.0,12.0,62,0.00,,---,0.00,VWS V14.00,2013-01-20 17:57:00,
2013-01-20 12:00:00,54.1,41.4,30.18,ESE,121,11.0,12.0,62,0.00,,---,0.00,VWS V14.00,2013-01-20 18:00:00,
2013-01-20 12:02:00,54.2,41.5,30.18,ESE,121,4.0,11.0,62,0.00,,---,0.00,VWS V14.00,2013-01-20 18:02:00,
2013-01-20 12:05:00,54.3,41.2,30.18,ESE,121,5.0,11.0,61,0.00,,---,0.00,VWS V14.00,2013-01-20 18:05:00,
2013-01-20 12:07:00,54.5,41.3,30.17,East,88,9.0,11.0,61,0.00,,---,0.00,VWS V14.00,2013-01-20 18:07:00,
2013-01-20 12:10:00,54.6,41.4,30.17,East,86,1.0,11.0,61,0.00,,---,0.00,VWS V14.00,2013-01-20 18:10:00,
2013-01-20 12:12:00,54.6,41.4,30.17,East,90,5.0,7.0,61,0.00,,---,0.00,VWS V14.00,2013-01-20 18:12:00,
2013-01-20 12:15:00,54.8,41.6,30.17,East,93,6.0,7.0,61,0.00,,---,0.00,VWS V14.00,2013-01-20 18:15:00,
2013-01-20 12:17:00,54.9,41.7,30.17,East,93,0.0,6.0,61,0.00,,---,0.00,VWS V14.00,2013-01-20 18:17:00,
2013-01-20 12:20:00,55.0,41.8,30.17,East,93,3.0,6.0,61,0.00,,---,0.00,VWS V14.00,2013-01-20 18:20:00,
2013-01-20 12:22:00,55.1,41.5,30.17,East,92,3.0,5.0,60,0.00,,---,0.00,VWS V14.00,2013-01-20 18:22:00,
2013-01-20 12:25:00,55.2,42.0,30.17,East,85,4.0,9.0,61,0.00,,---,0.00,VWS V14.00,2013-01-20 18:25:00,
2013-01-20 12:27:00,55.4,41.8,30.16,East,85,3.0,6.0,60,0.00,,---,0.00,VWS V14.00,2013-01-20 18:27:00,
2013-01-20 12:30:00,55.5,41.9,30.16,East,85,0.0,6.0,60,0.00,,---,0.00,VWS V14.00,2013-01-20 18:30:00,
2013-01-20 12:32:00,55.5,41.4,30.16,East,82,3.0,5.0,59,0.00,,---,0.00,VWS V14.00,2013-01-20 18:32:00,
2013-01-20 12:35:00,55.6,42.0,30.15,ENE,74,6.0,6.0,60,0.00,,---,0.00,VWS V14.00,2013-01-20 18:35:00,
2013-01-20 12:37:00,55.8,42.1,30.15,East,88,3.0,9.0,60,0.00,,---,0.00,VWS V14.00,2013-01-20 18:37:00,
2013-01-20 12:40:00,55.9,42.2,30.15,ENE,71,3.0,9.0,60,0.00,,---,0.00,VWS V14.00,2013-01-20 18:40:00,
2013-01-20 12:42:00,56.1,42.0,30.15,ENE,71,0.0,4.0,59,0.00,,---,0.00,VWS V14.00,2013-01-20 18:42:00,
2013-01-20 12:45:00,56.2,42.5,30.14,ENE,71,4.0,6.0,60,0.00,,---,0.00,VWS V14.00,2013-01-20 18:45:00,
2013-01-20 12:47:00,56.5,42.8,30.14,ESE,105,2.0,8.0,60,0.00,,---,0.00,VWS V14.00,2013-01-20 18:47:00,
2013-01-20 12:50:00,56.7,43.0,30.14,ESE,105,0.0,8.0,60,0.00,,---,0.00,VWS V14.00,2013-01-20 18:50:00,
2013-01-20 12:52:00,57.1,42.9,30.14,ESE,107,5.0,10.0,59,0.00,,---,0.00,VWS V14.00,2013-01-20 18:52:00,
2013-01-20 12:55:00,57.2,42.6,30.14,ESE,107,6.0,10.0,58,0.00,,---,0.00,VWS V14.00,2013-01-20 18:55:00,
2013-01-20 12:57:00,57.3,43.1,30.14,ESE,102,1.0,8.0,59,0.00,,---,0.00,VWS V14.00,2013-01-20 18:57:00,
2013-01-20 13:00:00,57.3,43.1,30.13,ESE,102,2.0,8.0,59,0.00,,---,0.00,VWS V14.00,2013-01-20 19:00:00,
2013-01-20 13:02:00,57.4,43.2,30.13,ESE,102,0.0,2.0,59,0.00,,---,0.00,VWS V14.00,2013-01-20 19:02:00,
2013-01-20 13:05:00,57.5,42.8,30.13,ESE,107,3.0,11.0,58,0.00,,---,0.00,VWS V14.00,2013-01-20 19:05:00,
2013-01-20 13:07:00,57.7,43.0,30.13,ESE,103,2.0,6.0,58,0.00,,---,0.00,VWS V14.00,2013-01-20 19:07:00,
2013-01-20 13:10:00,57.7,43.0,30.13,SE,129,10.0,10.0,58,0.00,,---,0.00,VWS V14.00,2013-01-20 19:10:00,
2013-01-20 13:12:00,57.7,42.6,30.13,SE,130,2.0,10.0,57,0.00,,---,0.00,VWS V14.00,2013-01-20 19:12:00,
2013-01-20 13:15:00,57.8,42.7,30.13,SE,130,3.0,10.0,57,0.00,,---,0.00,VWS V14.00,2013-01-20 19:15:00,
2013-01-20 13:17:00,58.1,43.4,30.12,ESE,115,5.0,10.0,58,0.00,,---,0.00,VWS V14.00,2013-01-20 19:17:00,
2013-01-20 13:20:00,58.2,43.5,30.12,ESE,113,0.0,10.0,58,0.00,,---,0.00,VWS V14.00,2013-01-20 19:20:00,
2013-01-20 13:22:00,58.4,43.2,30.12,ESE,113,1.0,4.0,57,0.00,,---,0.00,VWS V14.00,2013-01-20 19:22:00,
2013-01-20 13:25:00,58.5,43.3,30.11,ESE,121,5.0,9.0,57,0.00,,---,0.00,VWS V14.00,2013-01-20 19:25:00,
2013-01-20 13:27:00,58.8,43.6,30.11,SE,126,4.0,6.0,57,0.00,,---,0.00,VWS V14.00,2013-01-20 19:27:00,
2013-01-20 13:30:00,59.0,43.8,30.11,SE,130,7.0,7.0,57,0.00,,---,0.00,VWS V14.00,2013-01-20 19:30:00,
2013-01-20 13:32:00,59.0,42.9,30.11,SSE,150,3.0,10.0,55,0.00,,---,0.00,VWS V14.00,2013-01-20 19:32:00,
2013-01-20 13:35:00,59.3,42.7,30.11,SSE,150,3.0,10.0,54,0.00,,---,0.00,VWS V14.00,2013-01-20 19:35:00,
2013-01-20 13:37:00,59.4,43.2,30.11,SSE,150,0.0,3.0,55,0.00,,---,0.00,VWS V14.00,2013-01-20 19:37:00,
2013-01-20 13:40:00,59.6,43.4,30.11,SSE,150,0.0,3.0,55,0.00,,---,0.00,VWS V14.00,2013-01-20 19:40:00,
2013-01-20 13:42:00,59.8,43.6,30.11,SSE,150,4.0,4.0,55,0.00,,---,0.00,VWS V14.00,2013-01-20 19:42:00,
2013-01-20 13:45:00,60.0,43.8,30.11,SSE,149,5.0,7.0,55,0.00,,---,0.00,VWS V14.00,2013-01-20 19:45:00,
2013-01-20 13:47:00,60.3,44.1,30.11,SSE,149,1.0,5.0,55,0.00,,---,0.00,VWS V14.00,2013-01-20 19:47:00,
2013-01-20 13:50:00,60.5,43.8,30.11,SSE,149,0.0,5.0,54,0.00,,---,0.00,VWS V14.00,2013-01-20 19:50:00,
2013-01-20 13:52:00,60.8,43.6,30.10,SE,145,7.0,9.0,53,0.00,,---,0.00,VWS V14.00,2013-01-20 19:52:00,
2013-01-20 13:55:00,60.8,43.6,30.10,SE,132,6.0,11.0,53,0.00,,---,0.00,VWS V14.00,2013-01-20 19:55:00,
2013-01-20 13:57:00,60.8,43.1,30.10,SE,138,5.0,9.0,52,0.00,,---,0.00,VWS V14.00,2013-01-20 19:57:00,
2013-01-20 14:00:00,60.8,43.1,30.10,SE,138,0.0,9.0,52,0.00,,---,0.00,VWS V14.00,2013-01-20 20:00:00,
2013-01-20 14:02:00,61.1,43.9,30.10,SE,138,5.0,5.0,53,0.00,,---,0.00,VWS V14.00,2013-01-20 20:02:00,
2013-01-20 14:05:00,61.2,43.5,30.10,SE,136,1.0,6.0,52,0.00,,---,0.00,VWS V14.00,2013-01-20 20:05:00,
2013-01-20 14:07:00,61.3,43.5,30.10,ESE,123,7.0,11.0,52,0.00,,---,0.00,VWS V14.00,2013-01-20 20:07:00,
2013-01-20 14:10:00,61.3,43.5,30.10,ESE,122,4.0,11.0,52,0.00,,---,0.00,VWS V14.00,2013-01-20 20:10:00,
2013-01-20 14:12:00,61.4,43.6,30.09,SE,142,10.0,14.0,52,0.00,,---,0.00,VWS V14.00,2013-01-20 20:12:00,
2013-01-20 14:15:00,61.4,43.6,30.09,SSE,153,5.0,14.0,52,0.00,,---,0.00,VWS V14.00,2013-01-20 20:15:00,
2013-01-20 14:17:00,61.4,43.6,30.09,SE,134,9.0,10.0,52,0.00,,---,0.00,VWS V14.00,2013-01-20 20:17:00,
2013-01-20 14:20:00,61.3,43.5,30.09,SE,128,6.0,10.0,52,0.00,,---,0.00,VWS V14.00,2013-01-20 20:20:00,
2013-01-20 14:22:00,61.3,43.5,30.09,SSE,150,6.0,12.0,52,0.00,,---,0.00,VWS V14.00,2013-01-20 20:22:00,
2013-01-20 14:25:00,61.4,43.6,30.09,SSE,167,2.0,12.0,52,0.00,,---,0.00,VWS V14.00,2013-01-20 20:25:00,
2013-01-20 14:27:00,61.7,43.4,30.09,South,171,3.0,12.0,51,0.00,,---,0.00,VWS V14.00,2013-01-20 20:27:00,
2013-01-20 14:30:00,61.8,43.5,30.09,South,171,5.0,12.0,51,0.00,,---,0.00,VWS V14.00,2013-01-20 20:30:00,
2013-01-20 14:32:00,61.9,43.1,30.09,SE,126,11.0,14.0,50,0.00,,---,0.00,VWS V14.00,2013-01-20 20:32:00,
2013-01-20 14:35:00,61.9,43.6,30.08,SE,138,5.0,14.0,51,0.00,,---,0.00,VWS V14.00,2013-01-20 20:35:00,
2013-01-20 14:37:00,62.0,43.7,30.08,SE,134,9.0,10.0,51,0.00,,---,0.00,VWS V14.00,2013-01-20 20:37:00,
2013-01-20 14:40:00,62.0,43.2,30.08,SE,126,5.0,10.0,50,0.00,,---,0.00,VWS V14.00,2013-01-20 20:40:00,
2013-01-20 14:42:00,62.0,43.2,30.08,SSE,155,0.0,11.0,50,0.00,,---,0.00,VWS V14.00,2013-01-20 20:42:00,
2013-01-20 14:45:00,62.1,43.8,30.08,SSE,157,1.0,11.0,51,0.00,,---,0.00,VWS V14.00,2013-01-20 20:45:00,
2013-01-20 14:47:00,62.2,43.3,30.08,SSE,157,6.0,6.0,50,0.00,,---,0.00,VWS V14.00,2013-01-20 20:47:00,
2013-01-20 14:50:00,62.3,42.9,30.08,SSE,160,5.0,8.0,49,0.00,,---,0.00,VWS V14.00,2013-01-20 20:50:00,
2013-01-20 14:52:00,62.5,43.1,30.08,SSE,153,5.0,11.0,49,0.00,,---,0.00,VWS V14.00,2013-01-20 20:52:00,
2013-01-20 14:55:00,62.6,42.7,30.08,SSE,155,3.0,11.0,48,0.00,,---,0.00,VWS V14.00,2013-01-20 20:55:00,
2013-01-20 14:57:00,62.8,42.8,30.08,SSE,156,4.0,6.0,48,0.00,,---,0.00,VWS V14.00,2013-01-20 20:57:00,
2013-01-20 15:00:00,62.9,42.9,30.08,SSE,155,4.0,6.0,48,0.00,,---,0.00,VWS V14.00,2013-01-20 21:00:00,
2013-01-20 15:02:00,63.1,42.6,30.08,South,172,6.0,12.0,47,0.00,,---,0.00,VWS V14.00,2013-01-20 21:02:00,
2013-01-20 15:05:00,63.2,42.7,30.08,South,185,9.0,12.0,47,0.00,,---,0.00,VWS V14.00,2013-01-20 21:05:00,
2013-01-20 15:07:00,63.3,41.6,30.08,SSW,198,10.0,13.0,45,0.00,,---,0.00,VWS V14.00,2013-01-20 21:07:00,
2013-01-20 15:10:00,63.4,42.3,30.08,SSW,200,9.0,13.0,46,0.00,,---,0.00,VWS V14.00,2013-01-20 21:10:00,
2013-01-20 15:12:00,63.3,41.6,30.08,South,186,16.0,16.0,45,0.00,,---,0.00,VWS V14.00,2013-01-20 21:12:00,
2013-01-20 15:15:00,63.3,42.2,30.08,SSW,193,11.0,18.0,46,0.00,,---,0.00,VWS V14.00,2013-01-20 21:15:00,
2013-01-20 15:17:00,63.3,42.2,30.08,SSW,197,10.0,15.0,46,0.00,,---,0.00,VWS V14.00,2013-01-20 21:17:00,
2013-01-20 15:20:00,63.3,42.2,30.08,SSW,194,4.0,15.0,46,0.00,,---,0.00,VWS V14.00,2013-01-20 21:20:00,
2013-01-20 15:22:00,63.4,42.3,30.08,SSW,203,4.0,9.0,46,0.00,,---,0.00,VWS V14.00,2013-01-20 21:22:00,
2013-01-20 15:25:00,63.4,41.7,30.08,SSW,204,5.0,9.0,45,0.00,,---,0.00,VWS V14.00,2013-01-20 21:25:00,
2013-01-20 15:27:00,63.4,41.7,30.08,SSW,211,4.0,6.0,45,0.00,,---,0.00,VWS V14.00,2013-01-20 21:27:00,
2013-01-20 15:30:00,63.5,42.4,30.08,South,184,5.0,10.0,46,0.00,,---,0.00,VWS V14.00,2013-01-20 21:30:00,
2013-01-20 15:32:00,63.6,42.5,30.08,South,177,6.0,12.0,46,0.00,,---,0.00,VWS V14.00,2013-01-20 21:32:00,
2013-01-20 15:35:00,63.5,42.4,30.08,South,169,5.0,12.0,46,0.00,,---,0.00,VWS V14.00,2013-01-20 21:35:00,
2013-01-20 15:37:00,63.5,42.9,30.08,SSE,167,3.0,8.0,47,0.00,,---,0.00,VWS V14.00,2013-01-20 21:37:00,
2013-01-20 15:40:00,63.5,42.9,30.08,SSE,163,3.0,10.0,47,0.00,,---,0.00,VWS V14.00,2013-01-20 21:40:00,
2013-01-20 15:42:00,63.6,43.0,30.08,SSE,163,3.0,5.0,47,0.00,,---,0.00,VWS V14.00,2013-01-20 21:42:00,
2013-01-20 15:45:00,63.6,41.9,30.08,SSE,167,4.0,7.0,45,0.00,,---,0.00,VWS V14.00,2013-01-20 21:45:00,
2013-01-20 15:47:00,63.7,42.0,30.08,South,175,4.0,8.0,45,0.00,,---,0.00,VWS V14.00,2013-01-20 21:47:00,
2013-01-20 15:50:00,63.8,42.1,30.08,SW,225,6.0,10.0,45,0.00,,---,0.00,VWS V14.00,2013-01-20 21:50:00,
2013-01-20 15:52:00,63.9,42.2,30.08,SW,227,0.0,6.0,45,0.00,,---,0.00,VWS V14.00,2013-01-20 21:52:00,
2013-01-20 15:55:00,63.9,42.2,30.08,SW,227,3.0,6.0,45,0.00,,---,0.00,VWS V14.00,2013-01-20 21:55:00,
2013-01-20 15:57:00,64.0,42.8,30.08,SW,224,0.0,5.0,46,0.00,,---,0.00,VWS V14.00,2013-01-20 21:57:00,
2013-01-20 16:00:00,64.0,42.8,30.08,SW,224,0.0,5.0,46,0.00,,---,0.00,VWS V14.00,2013-01-20 22:00:00,
2013-01-20 16:02:00,64.1,42.3,30.08,SW,224,0.0,4.0,45,0.00,,---,0.00,VWS V14.00,2013-01-20 22:02:00,
2013-01-20 16:05:00,64.2,42.4,30.09,SW,224,3.0,4.0,45,0.00,,---,0.00,VWS V14.00,2013-01-20 22:05:00,
2013-01-20 16:07:00,64.3,41.3,30.08,SW,224,1.0,5.0,43,0.00,,---,0.00,VWS V14.00,2013-01-20 22:07:00,
2013-01-20 16:10:00,64.4,42.0,30.08,SW,234,5.0,6.0,44,0.00,,---,0.00,VWS V14.00,2013-01-20 22:10:00,
2013-01-20 16:12:00,64.4,41.4,30.09,SW,235,9.0,9.0,43,0.00,,---,0.00,VWS V14.00,2013-01-20 22:12:00,
2013-01-20 16:15:00,64.3,41.3,30.09,SW,232,5.0,9.0,43,0.00,,---,0.00,VWS V14.00,2013-01-20 22:15:00,
2013-01-20 16:17:00,64.3,40.7,30.08,SW,231,4.0,7.0,42,0.00,,---,0.00,VWS V14.00,2013-01-20 22:17:00,
2013-01-20 16:20:00,64.3,41.3,30.09,WSW,240,6.0,9.0,43,0.00,,---,0.00,VWS V14.00,2013-01-20 22:20:00,
2013-01-20 16:22:00,64.1,41.2,30.08,WSW,252,7.0,9.0,43,0.00,,---,0.00,VWS V14.00,2013-01-20 22:22:00,
2013-01-20 16:25:00,64.0,41.1,30.08,WSW,252,5.0,9.0,43,0.00,,---,0.00,VWS V14.00,2013-01-20 22:25:00,
2013-01-20 16:27:00,63.8,40.9,30.08,WSW,251,6.0,6.0,43,0.00,,---,0.00,VWS V14.00,2013-01-20 22:27:00,
2013-01-20 16:30:00,63.7,40.8,30.08,WSW,250,5.0,6.0,43,0.00,,---,0.00,VWS V14.00,2013-01-20 22:30:00,
2013-01-20 16:32:00,63.6,40.7,30.08,WSW,245,5.0,9.0,43,0.00,,---,0.00,VWS V14.00,2013-01-20 22:32:00,
2013-01-20 16:35:00,63.5,40.6,30.08,WSW,244,6.0,9.0,43,0.00,,---,0.00,VWS V14.00,2013-01-20 22:35:00,
2013-01-20 16:37:00,63.4,40.5,30.08,WSW,244,5.0,6.0,43,0.00,,---,0.00,VWS V14.00,2013-01-20 22:37:00,
2013-01-20 16:40:00,63.3,41.0,30.08,WSW,244,7.0,7.0,44,0.00,,---,0.00,VWS V14.00,2013-01-20 22:40:00,
2013-01-20 16:42:00,63.1,40.9,30.08,WSW,244,4.0,8.0,44,0.00,,---,0.00,VWS V14.00,2013-01-20 22:42:00,
2013-01-20 16:45:00,63.0,40.8,30.08,WSW,244,2.0,8.0,44,0.00,,---,0.00,VWS V14.00,2013-01-20 22:45:00,
2013-01-20 16:47:00,62.9,40.7,30.09,WSW,244,2.0,5.0,44,0.00,,---,0.00,VWS V14.00,2013-01-20 22:47:00,
2013-01-20 16:50:00,62.8,40.6,30.09,WSW,244,2.0,5.0,44,0.00,,---,0.00,VWS V14.00,2013-01-20 22:50:00,
2013-01-20 16:52:00,62.7,41.1,30.09,WSW,244,1.0,4.0,45,0.00,,---,0.00,VWS V14.00,2013-01-20 22:52:00,
2013-01-20 16:55:00,62.6,41.0,30.09,WSW,244,2.0,4.0,45,0.00,,---,0.00,VWS V14.00,2013-01-20 22:55:00,
2013-01-20 16:57:00,62.6,41.0,30.09,WSW,244,0.0,2.0,45,0.00,,---,0.00,VWS V14.00,2013-01-20 22:57:00,
2013-01-20 17:00:00,62.6,41.0,30.09,WSW,244,1.0,2.0,45,0.00,,---,0.00,VWS V14.00,2013-01-20 23:00:00,
2013-01-20 17:02:00,62.5,40.9,30.09,WSW,244,0.0,2.0,45,0.00,,---,0.00,VWS V14.00,2013-01-20 23:02:00,
2013-01-20 17:05:00,62.4,40.8,30.09,WSW,244,0.0,2.0,45,0.00,,---,0.00,VWS V14.00,2013-01-20 23:05:00,
2013-01-20 17:07:00,62.2,40.6,30.09,WSW,244,2.0,2.0,45,0.00,,---,0.00,VWS V14.00,2013-01-20 23:07:00,
2013-01-20 17:10:00,62.1,41.1,30.09,WSW,244,1.0,2.0,46,0.00,,---,0.00,VWS V14.00,2013-01-20 23:10:00,
2013-01-20 17:12:00,61.9,40.9,30.09,WSW,244,0.0,1.0,46,0.00,,---,0.00,VWS V14.00,2013-01-20 23:12:00,
2013-01-20 17:15:00,61.8,40.8,30.09,WSW,244,0.0,1.0,46,0.00,,---,0.00,VWS V14.00,2013-01-20 23:15:00,
2013-01-20 17:17:00,61.6,40.6,30.09,WSW,244,0.0,0.0,46,0.00,,---,0.00,VWS V14.00,2013-01-20 23:17:00,
2013-01-20 17:20:00,61.6,40.6,30.09,WSW,244,0.0,0.0,46,0.00,,---,0.00,VWS V14.00,2013-01-20 23:20:00,
2013-01-20 17:22:00,61.4,40.5,30.09,WSW,244,0.0,0.0,46,0.00,,---,0.00,VWS V14.00,2013-01-20 23:22:00,
2013-01-20 17:25:00,61.4,40.5,30.09,WSW,244,0.0,0.0,46,0.00,,---,0.00,VWS V14.00,2013-01-20 23:25:00,
2013-01-20 17:27:00,61.2,40.3,30.09,WSW,244,0.0,0.0,46,0.00,,---,0.00,VWS V14.00,2013-01-20 23:27:00,
2013-01-20 17:30:00,61.2,40.3,30.09,WSW,244,0.0,0.0,46,0.00,,---,0.00,VWS V14.00,2013-01-20 23:30:00,
2013-01-20 17:32:00,61.0,40.1,30.09,WSW,244,0.0,0.0,46,0.00,,---,0.00,VWS V14.00,2013-01-20 23:32:00,
2013-01-20 17:35:00,60.9,40.0,30.09,WSW,244,0.0,0.0,46,0.00,,---,0.00,VWS V14.00,2013-01-20 23:35:00,
2013-01-20 17:37:00,60.8,39.9,30.09,WSW,244,0.0,0.0,46,0.00,,---,0.00,VWS V14.00,2013-01-20 23:37:00,
2013-01-20 17:40:00,60.8,39.9,30.09,WSW,244,0.0,0.0,46,0.00,,---,0.00,VWS V14.00,2013-01-20 23:40:00,
2013-01-20 17:42:00,60.6,39.7,30.09,WSW,244,0.0,0.0,46,0.00,,---,0.00,VWS V14.00,2013-01-20 23:42:00,
2013-01-20 17:45:00,60.5,40.2,30.09,WSW,244,0.0,0.0,47,0.00,,---,0.00,VWS V14.00,2013-01-20 23:45:00,
2013-01-20 17:47:00,60.2,39.9,30.09,WSW,244,0.0,0.0,47,0.00,,---,0.00,VWS V14.00,2013-01-20 23:47:00,
2013-01-20 17:50:00,60.0,39.7,30.09,WSW,244,0.0,0.0,47,0.00,,---,0.00,VWS V14.00,2013-01-20 23:50:00,
2013-01-20 17:52:00,59.0,39.4,30.09,WSW,244,0.0,0.0,48,0.00,,---,0.00,VWS V14.00,2013-01-20 23:52:00,
2013-01-20 17:55:00,58.9,39.3,30.09,WSW,244,0.0,0.0,48,0.00,,---,0.00,VWS V14.00,2013-01-20 23:55:00,
2013-01-20 17:58:00,58.0,39.5,30.09,WSW,244,0.0,0.0,50,0.00,,---,0.00,VWS V14.00,2013-01-20 23:58:00,
2013-01-20 18:00:00,57.8,39.3,30.09,WSW,244,0.0,0.0,50,0.00,,---,0.00,VWS V14.00,2013-01-21 00:00:00,
2013-01-20 18:03:00,57.2,39.2,30.09,WSW,244,0.0,0.0,51,0.00,,---,0.00,VWS V14.00,2013-01-21 00:03:00,
2013-01-20 18:05:00,57.1,39.2,30.09,WSW,244,0.0,0.0,51,0.00,,---,0.00,VWS V14.00,2013-01-21 00:05:00,
2013-01-20 18:08:00,56.7,38.8,30.10,WSW,244,0.0,0.0,51,0.00,,---,0.00,VWS V14.00,2013-01-21 00:08:00,
2013-01-20 18:10:00,56.5,39.1,30.10,WSW,244,0.0,0.0,52,0.00,,---,0.00,VWS V14.00,2013-01-21 00:10:00,
2013-01-20 18:13:00,56.1,38.7,30.10,WSW,244,2.0,3.0,52,0.00,,---,0.00,VWS V14.00,2013-01-21 00:13:00,
2013-01-20 18:15:00,55.8,38.5,30.10,WSW,244,1.0,3.0,52,0.00,,---,0.00,VWS V14.00,2013-01-21 00:15:00,
2013-01-20 18:18:00,55.3,38.5,30.10,WSW,244,1.0,2.0,53,0.00,,---,0.00,VWS V14.00,2013-01-21 00:18:00,
2013-01-20 18:20:00,55.1,38.8,30.10,WSW,244,1.0,2.0,54,0.00,,---,0.00,VWS V14.00,2013-01-21 00:20:00,
2013-01-20 18:23:00,54.7,38.4,30.10,WSW,244,2.0,3.0,54,0.00,,---,0.00,VWS V14.00,2013-01-21 00:23:00,
2013-01-20 18:25:00,54.5,38.7,30.10,WSW,244,2.0,3.0,55,0.00,,---,0.00,VWS V14.00,2013-01-21 00:25:00,
2013-01-20 18:28:00,54.3,38.5,30.10,WSW,244,3.0,3.0,55,0.00,,---,0.00,VWS V14.00,2013-01-21 00:28:00,
2013-01-20 18:30:00,54.3,39.0,30.10,WSW,244,3.0,3.0,56,0.00,,---,0.00,VWS V14.00,2013-01-21 00:30:00,
2013-01-20 18:33:00,54.3,39.0,30.10,WSW,244,2.0,3.0,56,0.00,,---,0.00,VWS V14.00,2013-01-21 00:33:00,
2013-01-20 18:35:00,54.3,39.0,30.10,WSW,244,3.0,3.0,56,0.00,,---,0.00,VWS V14.00,2013-01-21 00:35:00,
2013-01-20 18:38:00,54.4,39.0,30.10,WSW,244,3.0,3.0,56,0.00,,---,0.00,VWS V14.00,2013-01-21 00:38:00,
2013-01-20 18:40:00,54.4,39.0,30.10,WSW,244,3.0,3.0,56,0.00,,---,0.00,VWS V14.00,2013-01-21 00:40:00,
2013-01-20 18:43:00,54.4,39.0,30.11,WSW,244,4.0,4.0,56,0.00,,---,0.00,VWS V14.00,2013-01-21 00:43:00,
2013-01-20 18:45:00,54.4,39.0,30.11,WSW,244,4.0,4.0,56,0.00,,---,0.00,VWS V14.00,2013-01-21 00:45:00,
2013-01-20 18:48:00,54.1,38.8,30.11,WSW,244,3.0,4.0,56,0.00,,---,0.00,VWS V14.00,2013-01-21 00:48:00,
2013-01-20 18:50:00,54.0,38.7,30.11,WSW,244,2.0,4.0,56,0.00,,---,0.00,VWS V14.00,2013-01-21 00:50:00,
2013-01-20 18:53:00,53.6,38.8,30.11,WSW,244,2.0,4.0,57,0.00,,---,0.00,VWS V14.00,2013-01-21 00:53:00,
2013-01-20 18:55:00,53.5,38.7,30.11,WSW,244,2.0,4.0,57,0.00,,---,0.00,VWS V14.00,2013-01-21 00:55:00,
2013-01-20 18:58:00,53.0,38.6,30.12,WSW,245,2.0,4.0,58,0.00,,---,0.00,VWS V14.00,2013-01-21 00:58:00,
2013-01-20 19:00:00,52.8,38.5,30.11,North,11,9.0,12.0,58,0.00,,---,0.00,VWS V14.00,2013-01-21 01:00:00,
2013-01-20 19:03:00,52.7,38.8,30.12,NNE,13,6.0,11.0,59,0.00,,---,0.00,VWS V14.00,2013-01-21 01:03:00,
2013-01-20 19:05:00,52.7,38.8,30.12,NNE,21,7.0,11.0,59,0.00,,---,0.00,VWS V14.00,2013-01-21 01:05:00,
2013-01-20 19:08:00,52.4,38.5,30.12,NNE,23,7.0,10.0,59,0.00,,---,0.00,VWS V14.00,2013-01-21 01:08:00,
2013-01-20 19:10:00,52.4,38.5,30.12,NNE,23,6.0,11.0,59,0.00,,---,0.00,VWS V14.00,2013-01-21 01:10:00,
2013-01-20 19:13:00,52.0,38.1,30.12,NNE,24,6.0,9.0,59,0.00,,---,0.00,VWS V14.00,2013-01-21 01:13:00,
2013-01-20 19:15:00,51.8,37.9,30.12,NNE,24,7.0,9.0,59,0.00,,---,0.00,VWS V14.00,2013-01-21 01:15:00,
2013-01-20 19:18:00,51.5,38.1,30.13,NNE,26,9.0,10.0,60,0.00,,---,0.00,VWS V14.00,2013-01-21 01:18:00,
2013-01-20 19:20:00,51.4,38.0,30.13,NNE,24,8.0,10.0,60,0.00,,---,0.00,VWS V14.00,2013-01-21 01:20:00,
2013-01-20 19:23:00,51.1,37.3,30.13,NNE,18,7.0,14.0,59,0.00,,---,0.00,VWS V14.00,2013-01-21 01:23:00,
2013-01-20 19:25:00,51.0,37.2,30.13,NNE,19,6.0,14.0,59,0.00,,---,0.00,VWS V14.00,2013-01-21 01:25:00,
2013-01-20 19:28:00,50.8,36.1,30.13,North,5,11.0,15.0,57,0.00,,---,0.00,VWS V14.00,2013-01-21 01:28:00,
2013-01-20 19:30:00,50.7,36.0,30.13,NNE,16,8.0,15.0,57,0.00,,---,0.00,VWS V14.00,2013-01-21 01:30:00,
2013-01-20 19:33:00,50.4,34.9,30.14,North,5,11.0,13.0,55,0.00,,---,0.00,VWS V14.00,2013-01-21 01:33:00,
2013-01-20 19:35:00,50.3,34.8,30.14,NNE,13,6.0,13.0,55,0.00,,---,0.00,VWS V14.00,2013-01-21 01:35:00,
2013-01-20 19:38:00,49.8,33.8,30.14,NNE,28,11.0,16.0,54,0.00,,---,0.00,VWS V14.00,2013-01-21 01:38:00,
2013-01-20 19:40:00,49.7,33.8,30.14,North,11,11.0,16.0,54,0.00,,---,0.00,VWS V14.00,2013-01-21 01:40:00,
2013-01-20 19:43:00,49.3,32.9,30.14,North,10,15.0,18.0,53,0.00,,---,0.00,VWS V14.00,2013-01-21 01:43:00,
2013-01-20 19:45:00,49.2,33.3,30.14,NNE,13,5.0,18.0,54,0.00,,---,0.00,VWS V14.00,2013-01-21 01:45:00,
2013-01-20 19:48:00,48.8,32.9,30.14,NNE,12,9.0,15.0,54,0.00,,---,0.00,VWS V14.00,2013-01-21 01:48:00,
2013-01-20 19:50:00,48.7,32.8,30.14,NNE,28,12.0,15.0,54,0.00,,---,0.00,VWS V14.00,2013-01-21 01:50:00,
2013-01-20 19:53:00,48.3,32.4,30.15,NNE,12,9.0,13.0,54,0.00,,---,0.00,VWS V14.00,2013-01-21 01:53:00,
2013-01-20 19:55:00,48.2,32.3,30.15,NNE,13,5.0,13.0,54,0.00,,---,0.00,VWS V14.00,2013-01-21 01:55:00,
2013-01-20 19:58:00,47.8,32.4,30.15,NNE,21,10.0,14.0,55,0.00,,---,0.00,VWS V14.00,2013-01-21 01:58:00,
2013-01-20 20:00:00,47.7,32.3,30.15,NNE,12,10.0,14.0,55,0.00,,---,0.00,VWS V14.00,2013-01-21 02:00:00,
2013-01-20 20:03:00,47.4,32.1,30.15,NNE,23,7.0,15.0,55,0.00,,---,0.00,VWS V14.00,2013-01-21 02:03:00,
2013-01-20 20:05:00,47.3,32.4,30.15,NNE,19,6.0,15.0,56,0.00,,---,0.00,VWS V14.00,2013-01-21 02:05:00,
2013-01-20 20:08:00,46.9,32.0,30.16,NNE,21,7.0,14.0,56,0.00,,---,0.00,VWS V14.00,2013-01-21 02:08:00,
2013-01-20 20:10:00,46.7,31.9,30.16,NNE,22,11.0,14.0,56,0.00,,---,0.00,VWS V14.00,2013-01-21 02:10:00,
2013-01-20 20:13:00,46.5,31.7,30.16,North,11,12.0,15.0,56,0.00,,---,0.00,VWS V14.00,2013-01-21 02:13:00,
2013-01-20 20:15:00,46.5,31.7,30.16,North,11,10.0,15.0,56,0.00,,---,0.00,VWS V14.00,2013-01-21 02:15:00,
2013-01-20 20:18:00,46.3,31.5,30.16,NNE,19,6.0,12.0,56,0.00,,---,0.00,VWS V14.00,2013-01-21 02:18:00,
2013-01-20 20:20:00,46.2,31.8,30.16,NNE,19,5.0,12.0,57,0.00,,---,0.00,VWS V14.00,2013-01-21 02:20:00,
2013-01-20 20:23:00,45.9,31.5,30.16,NNE,21,5.0,12.0,57,0.00,,---,0.00,VWS V14.00,2013-01-21 02:23:00,
2013-01-20 20:25:00,45.8,31.9,30.16,NNE,15,6.0,15.0,58,0.00,,---,0.00,VWS V14.00,2013-01-21 02:25:00,
2013-01-20 20:28:00,45.5,31.2,30.17,NNE,18,11.0,14.0,57,0.00,,---,0.00,VWS V14.00,2013-01-21 02:28:00,
2013-01-20 20:30:00,45.5,31.2,30.17,North,9,9.0,14.0,57,0.00,,---,0.00,VWS V14.00,2013-01-21 02:30:00,
2013-01-20 20:33:00,45.3,31.4,30.17,NNE,14,10.0,12.0,58,0.00,,---,0.00,VWS V14.00,2013-01-21 02:33:00,
2013-01-20 20:35:00,45.2,31.3,30.17,NNE,18,6.0,12.0,58,0.00,,---,0.00,VWS V14.00,2013-01-21 02:35:00,
2013-01-20 20:38:00,45.0,31.1,30.17,NNE,14,7.0,11.0,58,0.00,,---,0.00,VWS V14.00,2013-01-21 02:38:00,
2013-01-20 20:40:00,45.0,31.1,30.17,NNE,13,9.0,13.0,58,0.00,,---,0.00,VWS V14.00,2013-01-21 02:40:00,
2013-01-20 20:43:00,44.7,30.9,30.17,North,11,6.0,13.0,58,0.00,,---,0.00,VWS V14.00,2013-01-21 02:43:00,
2013-01-20 20:45:00,44.6,30.8,30.17,North,9,12.0,17.0,58,0.00,,---,0.00,VWS V14.00,2013-01-21 02:45:00,
2013-01-20 20:48:00,44.5,30.2,30.17,NNE,14,11.0,16.0,57,0.00,,---,0.00,VWS V14.00,2013-01-21 02:48:00,
2013-01-20 20:50:00,44.5,30.2,30.18,North,9,10.0,16.0,57,0.00,,---,0.00,VWS V14.00,2013-01-21 02:50:00,
2013-01-20 20:53:00,44.3,30.0,30.18,NNE,13,8.0,12.0,57,0.00,,---,0.00,VWS V14.00,2013-01-21 02:53:00,
2013-01-20 20:55:00,44.2,30.0,30.18,NNE,13,6.0,14.0,57,0.00,,---,0.00,VWS V14.00,2013-01-21 02:55:00,
2013-01-20 20:58:00,44.1,29.4,30.18,NNE,15,13.0,16.0,56,0.00,,---,0.00,VWS V14.00,2013-01-21 02:58:00,
2013-01-20 21:00:00,44.0,29.3,30.18,NNE,13,9.0,16.0,56,0.00,,---,0.00,VWS V14.00,2013-01-21 03:00:00,
2013-01-20 21:03:00,43.8,29.1,30.18,NNE,12,11.0,18.0,56,0.00,,---,0.00,VWS V14.00,2013-01-21 03:03:00,
2013-01-20 21:05:00,43.8,29.1,30.18,NNE,12,10.0,18.0,56,0.00,,---,0.00,VWS V14.00,2013-01-21 03:05:00,
2013-01-20 21:08:00,43.5,28.9,30.18,North,11,9.0,15.0,56,0.00,,---,0.00,VWS V14.00,2013-01-21 03:08:00,
2013-01-20 21:10:00,43.4,28.8,30.18,North,9,11.0,15.0,56,0.00,,---,0.00,VWS V14.00,2013-01-21 03:10:00,
2013-01-20 21:13:00,43.2,28.1,30.19,NNE,12,7.0,14.0,55,0.00,,---,0.00,VWS V14.00,2013-01-21 03:13:00,
2013-01-20 21:15:00,43.1,28.0,30.18,North,5,13.0,15.0,55,0.00,,---,0.00,VWS V14.00,2013-01-21 03:15:00,
2013-01-20 21:18:00,42.8,27.8,30.19,North,11,12.0,15.0,55,0.00,,---,0.00,VWS V14.00,2013-01-21 03:18:00,
2013-01-20 21:20:00,42.7,27.7,30.19,North,5,13.0,15.0,55,0.00,,---,0.00,VWS V14.00,2013-01-21 03:20:00,
2013-01-20 21:23:00,42.5,27.0,30.19,North,5,12.0,17.0,54,0.00,,---,0.00,VWS V14.00,2013-01-21 03:23:00,
2013-01-20 21:25:00,42.5,27.0,30.19,North,5,9.0,17.0,54,0.00,,---,0.00,VWS V14.00,2013-01-21 03:25:00,
2013-01-20 21:28:00,42.3,26.9,30.20,North,360,11.0,16.0,54,0.00,,---,0.00,VWS V14.00,2013-01-21 03:28:00,
2013-01-20 21:30:00,42.2,26.8,30.19,NNE,13,8.0,16.0,54,0.00,,---,0.00,VWS V14.00,2013-01-21 03:30:00,
2013-01-20 21:33:00,42.1,26.7,30.20,North,360,6.0,16.0,54,0.00,,---,0.00,VWS V14.00,2013-01-21 03:33:00,
2013-01-20 21:35:00,42.0,26.6,30.20,North,11,10.0,16.0,54,0.00,,---,0.00,VWS V14.00,2013-01-21 03:35:00,
2013-01-20 21:38:00,41.8,26.4,30.20,North,355,7.0,16.0,54,0.00,,---,0.00,VWS V14.00,2013-01-21 03:38:00,
2013-01-20 21:40:00,41.8,26.4,30.20,North,360,13.0,16.0,54,0.00,,---,0.00,VWS V14.00,2013-01-21 03:40:00,
2013-01-20 21:43:00,41.6,25.8,30.20,NNE,13,14.0,15.0,53,0.00,,---,0.00,VWS V14.00,2013-01-21 03:43:00,
2013-01-20 21:45:00,41.6,25.8,30.20,NNE,13,10.0,15.0,53,0.00,,---,0.00,VWS V14.00,2013-01-21 03:45:00,
2013-01-20 21:48:00,41.3,25.5,30.21,North,360,14.0,16.0,53,0.00,,---,0.00,VWS V14.00,2013-01-21 03:48:00,
2013-01-20 21:50:00,41.3,25.5,30.20,North,360,10.0,18.0,53,0.00,,---,0.00,VWS V14.00,2013-01-21 03:50:00,
2013-01-20 21:53:00,41.1,25.3,30.21,North,5,9.0,15.0,53,0.00,,---,0.00,VWS V14.00,2013-01-21 03:53:00,
2013-01-20 21:55:00,41.1,25.3,30.21,NNE,22,11.0,19.0,53,0.00,,---,0.00,VWS V14.00,2013-01-21 03:55:00,
2013-01-20 21:58:00,41.0,25.2,30.21,North,9,12.0,17.0,53,0.00,,---,0.00,VWS V14.00,2013-01-21 03:58:00,
2013-01-20 22:00:00,40.9,25.1,30.21,NNE,14,10.0,17.0,53,0.00,,---,0.00,VWS V14.00,2013-01-21 04:00:00,
2013-01-20 22:03:00,40.7,24.9,30.21,North,9,11.0,19.0,53,0.00,,---,0.00,VWS V14.00,2013-01-21 04:03:00,
2013-01-20 22:05:00,40.7,24.9,30.21,North,360,17.0,19.0,53,0.00,,---,0.00,VWS V14.00,2013-01-21 04:05:00,
2013-01-20 22:08:00,40.5,24.7,30.21,North,10,12.0,17.0,53,0.00,,---,0.00,VWS V14.00,2013-01-21 04:08:00,
2013-01-20 22:10:00,40.4,24.6,30.22,North,9,14.0,17.0,53,0.00,,---,0.00,VWS V14.00,2013-01-21 04:10:00,
2013-01-20 22:13:00,40.1,24.4,30.22,North,9,15.0,18.0,53,0.00,,---,0.00,VWS V14.00,2013-01-21 04:13:00,
2013-01-20 22:15:00,40.1,24.8,30.22,North,355,15.0,18.0,54,0.00,,---,0.00,VWS V14.00,2013-01-21 04:15:00,
2013-01-20 22:18:00,39.8,24.1,30.22,North,5,12.0,22.0,53,0.00,,---,0.00,VWS V14.00,2013-01-21 04:18:00,
2013-01-20 22:20:00,39.7,24.0,30.22,North,5,9.0,22.0,53,0.00,,---,0.00,VWS V14.00,2013-01-21 04:20:00,
2013-01-20 22:23:00,39.4,23.7,30.23,North,360,16.0,22.0,53,0.00,,---,0.00,VWS V14.00,2013-01-21 04:23:00,
2013-01-20 22:25:00,39.3,23.6,30.22,NNE,18,12.0,22.0,53,0.00,,---,0.00,VWS V14.00,2013-01-21 04:25:00,
2013-01-20 22:28:00,39.1,23.4,30.23,North,350,17.0,21.0,53,0.00,,---,0.00,VWS V14.00,2013-01-21 04:28:00,
2013-01-20 22:30:00,39.0,22.9,30.23,NNE,14,16.0,22.0,52,0.00,,---,0.00,VWS V14.00,2013-01-21 04:30:00,
2013-01-20 22:33:00,38.8,23.1,30.23,NNE,19,16.0,19.0,53,0.00,,---,0.00,VWS V14.00,2013-01-21 04:33:00,
2013-01-20 22:35:00,38.7,23.1,30.23,NNE,13,14.0,19.0,53,0.00,,---,0.00,VWS V14.00,2013-01-21 04:35:00,
2013-01-20 22:38:00,38.4,22.3,30.23,North,355,14.0,24.0,52,0.00,,---,0.00,VWS V14.00,2013-01-21 04:38:00,
2013-01-20 22:40:00,38.3,22.7,30.23,North,360,13.0,24.0,53,0.00,,---,0.00,VWS V14.00,2013-01-21 04:40:00,
2013-01-20 22:43:00,38.1,22.0,30.24,North,9,17.0,20.0,52,0.00,,---,0.00,VWS V14.00,2013-01-21 04:43:00,
2013-01-20 22:45:00,38.0,22.4,30.24,NNE,25,17.0,21.0,53,0.00,,---,0.00,VWS V14.00,2013-01-21 04:45:00,
2013-01-20 22:48:00,37.7,22.1,30.24,NNE,17,8.0,20.0,53,0.00,,---,0.00,VWS V14.00,2013-01-21 04:48:00,
2013-01-20 22:50:00,37.6,22.0,30.24,NNE,12,14.0,20.0,53,0.00,,---,0.00,VWS V14.00,2013-01-21 04:50:00,
2013-01-20 22:53:00,37.3,21.8,30.24,NNE,32,14.0,22.0,53,0.00,,---,0.00,VWS V14.00,2013-01-21 04:53:00,
2013-01-20 22:55:00,37.2,21.7,30.24,NNE,26,8.0,22.0,53,0.00,,---,0.00,VWS V14.00,2013-01-21 04:55:00,
2013-01-20 22:58:00,37.0,21.5,30.24,NNE,19,11.0,23.0,53,0.00,,---,0.00,VWS V14.00,2013-01-21 04:58:00,
2013-01-20 23:00:00,36.9,21.8,30.25,NNE,16,9.0,16.0,54,0.00,,---,0.00,VWS V14.00,2013-01-21 05:00:00,
2013-01-20 23:03:00,36.7,21.6,30.25,North,355,14.0,16.0,54,0.00,,---,0.00,VWS V14.00,2013-01-21 05:03:00,
2013-01-20 23:05:00,36.7,21.6,30.25,North,5,12.0,16.0,54,0.00,,---,0.00,VWS V14.00,2013-01-21 05:05:00,
2013-01-20 23:08:00,36.4,21.4,30.25,North,9,17.0,17.0,54,0.00,,---,0.00,VWS V14.00,2013-01-21 05:08:00,
2013-01-20 23:10:00,36.4,21.4,30.25,NNE,33,15.0,17.0,54,0.00,,---,0.00,VWS V14.00,2013-01-21 05:10:00,
2013-01-20 23:13:00,36.1,21.1,30.25,NNE,13,9.0,20.0,54,0.00,,---,0.00,VWS V14.00,2013-01-21 05:13:00,
2013-01-20 23:15:00,36.1,21.1,30.25,NNE,24,11.0,20.0,54,0.00,,---,0.00,VWS V14.00,2013-01-21 05:15:00,
2013-01-20 23:18:00,35.8,21.2,30.25,NNE,26,8.0,17.0,55,0.00,,---,0.00,VWS V14.00,2013-01-21 05:18:00,
2013-01-20 23:20:00,35.7,21.1,30.25,North,5,14.0,17.0,55,0.00,,---,0.00,VWS V14.00,2013-01-21 05:20:00,
2013-01-20 23:23:00,35.5,21.0,30.25,North,11,12.0,20.0,55,0.00,,---,0.00,VWS V14.00,2013-01-21 05:23:00,
2013-01-20 23:25:00,35.4,20.9,30.25,NNE,15,18.0,20.0,55,0.00,,---,0.00,VWS V14.00,2013-01-21 05:25:00,
2013-01-20 23:28:00,35.2,20.2,30.25,NNE,15,12.0,18.0,54,0.00,,---,0.00,VWS V14.00,2013-01-21 05:28:00,
2013-01-20 23:30:00,35.2,20.7,30.25,NNE,15,13.0,18.0,55,0.00,,---,0.00,VWS V14.00,2013-01-21 05:30:00,
2013-01-20 23:33:00,35.0,20.0,30.26,NNE,22,15.0,20.0,54,0.00,,---,0.00,VWS V14.00,2013-01-21 05:33:00,
2013-01-20 23:35:00,35.0,20.0,30.25,NNE,24,13.0,20.0,54,0.00,,---,0.00,VWS V14.00,2013-01-21 05:35:00,
2013-01-20 23:38:00,34.7,19.8,30.26,NNE,20,15.0,23.0,54,0.00,,---,0.00,VWS V14.00,2013-01-21 05:38:00,
2013-01-20 23:40:00,34.7,19.8,30.26,NNE,22,15.0,23.0,54,0.00,,---,0.00,VWS V14.00,2013-01-21 05:40:00,
2013-01-20 23:43:00,34.4,19.5,30.26,North,5,16.0,20.0,54,0.00,,---,0.00,VWS V14.00,2013-01-21 05:43:00,
2013-01-20 23:45:00,34.4,19.5,30.26,NNE,25,11.0,20.0,54,0.00,,---,0.00,VWS V14.00,2013-01-21 05:45:00,
2013-01-20 23:48:00,34.4,19.5,30.26,North,355,15.0,19.0,54,0.00,,---,0.00,VWS V14.00,2013-01-21 05:48:00,
2013-01-20 23:50:00,34.3,19.4,30.26,NNE,17,12.0,19.0,54,0.00,,---,0.00,VWS V14.00,2013-01-21 05:50:00,
2013-01-20 23:53:00,34.1,19.2,30.26,NNE,22,12.0,18.0,54,0.00,,---,0.00,VWS V14.00,2013-01-21 05:53:00,
2013-01-20 23:55:00,34.0,19.5,30.26,NNE,21,11.0,18.0,55,0.00,,---,0.00,VWS V14.00,2013-01-21 05:55:00,
2013-01-20 23:58:00,33.8,19.4,30.27,NNE,15,10.0,18.0,55,0.00,,---,0.00,VWS V14.00,2013-01-21 05:58:00,